Time,TemperatureF,DewpointF,PressureIn,WindDirection,WindDirectionDegrees,WindSpeedMPH,WindSpeedGustMPH,Humidity,HourlyPrecipIn,Conditions,Clouds,dailyrainin,SoftwareType,DateUTC
2013-04-15 00:03:00,57.5,45.4,29.62,SSE,155,0.0,3.0,64,0.00,,---,0.00,VWS V14.01,2013-04-15 05:03:00,
2013-04-15 00:05:00,57.5,45.4,29.62,SSW,196,1.0,3.0,64,0.00,,---,0.00,VWS V14.01,2013-04-15 05:05:00,
2013-04-15 00:09:00,57.5,45.4,29.62,ESE,120,2.0,2.0,64,0.00,,---,0.00,VWS V14.01,2013-04-15 05:09:00,
2013-04-15 00:10:00,57.3,45.2,29.62,SE,130,0.0,4.0,64,0.00,,---,0.00,VWS V14.01,2013-04-15 05:10:00,
2013-04-15 00:11:00,57.3,45.2,29.62,SSE,148,3.0,5.0,64,0.00,,---,0.00,VWS V14.01,2013-04-15 05:11:00,
2013-04-15 00:12:00,57.3,45.2,29.62,SSE,165,2.0,5.0,64,0.00,,---,0.00,VWS V14.01,2013-04-15 05:12:00,
2013-04-15 00:14:00,57.3,45.2,29.62,SSW,200,1.0,3.0,64,0.00,,---,0.00,VWS V14.01,2013-04-15 05:14:00,
2013-04-15 00:16:00,57.3,45.2,29.62,ESE,113,2.0,4.0,64,0.00,,---,0.00,VWS V14.01,2013-04-15 05:16:00,
2013-04-15 00:17:00,57.2,45.2,29.62,SSE,155,3.0,3.0,64,0.00,,---,0.00,VWS V14.01,2013-04-15 05:17:00,
2013-04-15 00:20:00,57.2,45.2,29.62,South,191,4.0,4.0,64,0.00,,---,0.00,VWS V14.01,2013-04-15 05:20:00,
2013-04-15 00:21:00,57.2,45.2,29.62,ESE,108,1.0,5.0,64,0.00,,---,0.00,VWS V14.01,2013-04-15 05:21:00,
2013-04-15 00:22:00,57.3,44.8,29.62,SE,139,0.0,5.0,63,0.00,,---,0.00,VWS V14.01,2013-04-15 05:22:00,
2013-04-15 00:23:00,57.3,44.8,29.62,SE,139,0.0,5.0,63,0.00,,---,0.00,VWS V14.01,2013-04-15 05:23:00,
2013-04-15 00:25:00,57.5,45.0,29.62,SE,136,2.0,3.0,63,0.00,,---,0.00,VWS V14.01,2013-04-15 05:25:00,
2013-04-15 00:26:00,57.5,44.6,29.62,SE,125,3.0,5.0,62,0.00,,---,0.00,VWS V14.01,2013-04-15 05:26:00,
2013-04-15 00:28:00,57.6,44.7,29.62,SE,129,1.0,1.0,62,0.00,,---,0.00,VWS V14.01,2013-04-15 05:28:00,
2013-04-15 00:29:00,57.6,44.7,29.62,SE,129,0.0,0.0,62,0.00,,---,0.00,VWS V14.01,2013-04-15 05:29:00,
2013-04-15 00:32:00,58.1,44.7,29.62,South,169,2.0,9.0,61,0.00,,---,0.00,VWS V14.01,2013-04-15 05:32:00,
2013-04-15 00:34:00,58.3,44.9,29.62,SE,133,3.0,4.0,61,0.00,,---,0.00,VWS V14.01,2013-04-15 05:34:00,
2013-04-15 00:35:00,58.4,44.6,29.62,East,101,1.0,10.0,60,0.00,,---,0.00,VWS V14.01,2013-04-15 05:35:00,
2013-04-15 00:38:00,58.9,45.1,29.62,SSE,148,3.0,3.0,60,0.00,,---,0.00,VWS V14.01,2013-04-15 05:38:00,
2013-04-15 00:39:00,58.9,45.1,29.62,SE,134,1.0,3.0,60,0.00,,---,0.00,VWS V14.01,2013-04-15 05:39:00,
2013-04-15 00:42:00,58.9,45.1,29.62,WSW,242,5.0,7.0,60,0.00,,---,0.00,VWS V14.01,2013-04-15 05:42:00,
2013-04-15 00:43:00,58.9,44.6,29.61,SSE,161,2.0,6.0,59,0.00,,---,0.00,VWS V14.01,2013-04-15 05:43:00,
2013-04-15 00:44:00,58.9,44.6,29.61,SSE,159,0.0,0.0,59,0.00,,---,0.00,VWS V14.01,2013-04-15 05:44:00,
2013-04-15 00:47:00,58.9,45.1,29.61,West,279,1.0,5.0,60,0.00,,---,0.00,VWS V14.01,2013-04-15 05:47:00,
2013-04-15 00:48:00,58.9,45.1,29.61,SW,219,5.0,5.0,60,0.00,,---,0.00,VWS V14.01,2013-04-15 05:48:00,
2013-04-15 00:49:00,58.9,45.1,29.61,SSW,193,4.0,4.0,60,0.00,,---,0.00,VWS V14.01,2013-04-15 05:49:00,
2013-04-15 00:50:00,58.9,45.1,29.61,SSW,198,2.0,4.0,60,0.00,,---,0.00,VWS V14.01,2013-04-15 05:50:00,
2013-04-15 00:53:00,58.9,45.1,29.61,East,90,2.0,4.0,60,0.00,,---,0.00,VWS V14.01,2013-04-15 05:53:00,
2013-04-15 00:54:00,58.7,44.9,29.61,SSW,201,2.0,3.0,60,0.00,,---,0.00,VWS V14.01,2013-04-15 05:54:00,
2013-04-15 00:55:00,58.7,44.9,29.61,WNW,289,0.0,3.0,60,0.00,,---,0.00,VWS V14.01,2013-04-15 05:55:00,
2013-04-15 00:56:00,58.7,44.9,29.61,SW,224,2.0,4.0,60,0.00,,---,0.00,VWS V14.01,2013-04-15 05:56:00,
2013-04-15 01:00:00,58.7,44.9,29.62,SSE,158,3.0,4.0,60,0.00,,---,0.00,VWS V14.01,2013-04-15 06:00:00,
2013-04-15 01:01:00,58.7,44.9,29.62,SE,127,7.0,8.0,60,0.00,,---,0.00,VWS V14.01,2013-04-15 06:01:00,
2013-04-15 01:02:00,58.7,44.9,29.62,SSE,150,0.0,1.0,60,0.00,,---,0.00,VWS V14.01,2013-04-15 06:02:00,
2013-04-15 01:07:00,58.7,44.9,29.62,SSW,203,2.0,9.0,60,0.00,,---,0.00,VWS V14.01,2013-04-15 06:07:00,
2013-04-15 01:08:00,58.7,44.9,29.62,East,91,1.0,4.0,60,0.00,,---,0.00,VWS V14.01,2013-04-15 06:08:00,
2013-04-15 01:09:00,58.7,44.9,29.62,SSW,202,1.0,2.0,60,0.00,,---,0.00,VWS V14.01,2013-04-15 06:09:00,
2013-04-15 01:12:00,58.7,44.9,29.62,SE,127,2.0,6.0,60,0.00,,---,0.00,VWS V14.01,2013-04-15 06:12:00,
2013-04-15 01:13:00,58.9,45.1,29.62,South,187,2.0,5.0,60,0.00,,---,0.00,VWS V14.01,2013-04-15 06:13:00,
2013-04-15 01:16:00,58.9,45.1,29.63,SSW,197,3.0,6.0,60,0.00,,---,0.00,VWS V14.01,2013-04-15 06:16:00,
2013-04-15 01:17:00,58.9,45.1,29.63,SSE,156,0.0,1.0,60,0.00,,---,0.00,VWS V14.01,2013-04-15 06:17:00,
2013-04-15 01:18:00,58.7,44.9,29.63,West,265,2.0,2.0,60,0.00,,---,0.00,VWS V14.01,2013-04-15 06:18:00,
2013-04-15 01:20:00,58.7,44.9,29.63,SSW,193,0.0,2.0,60,0.00,,---,0.00,VWS V14.01,2013-04-15 06:20:00,
2013-04-15 01:22:00,58.7,44.9,29.63,SSW,198,2.0,2.0,60,0.00,,---,0.00,VWS V14.01,2013-04-15 06:22:00,
2013-04-15 01:23:00,58.7,44.9,29.63,SSW,201,0.0,2.0,60,0.00,,---,0.00,VWS V14.01,2013-04-15 06:23:00,
2013-04-15 01:25:00,58.6,44.8,29.63,SSW,209,3.0,3.0,60,0.00,,---,0.00,VWS V14.01,2013-04-15 06:25:00,
2013-04-15 01:26:00,58.6,44.8,29.63,West,273,3.0,3.0,60,0.00,,---,0.00,VWS V14.01,2013-04-15 06:26:00,
2013-04-15 01:29:00,58.7,44.9,29.65,WNW,300,5.0,5.0,60,0.00,,---,0.00,VWS V14.01,2013-04-15 06:29:00,
2013-04-15 01:30:00,58.7,44.9,29.65,ESE,106,2.0,11.0,60,0.00,,---,0.00,VWS V14.01,2013-04-15 06:30:00,
2013-04-15 01:31:00,58.7,44.9,29.65,WSW,240,2.0,3.0,60,0.00,,---,0.00,VWS V14.01,2013-04-15 06:31:00,
2013-04-15 01:33:00,58.7,44.9,29.65,SW,223,1.0,4.0,60,0.00,,---,0.00,VWS V14.01,2013-04-15 06:33:00,
2013-04-15 01:35:00,58.7,45.3,29.65,SW,216,1.0,4.0,61,0.00,,---,0.00,VWS V14.01,2013-04-15 06:35:00,
2013-04-15 01:36:00,58.7,45.3,29.65,South,181,5.0,8.0,61,0.00,,---,0.00,VWS V14.01,2013-04-15 06:36:00,
2013-04-15 01:37:00,58.7,45.3,29.65,SSE,149,2.0,4.0,61,0.00,,---,0.00,VWS V14.01,2013-04-15 06:37:00,
2013-04-15 01:38:00,58.7,45.3,29.65,SSE,150,0.0,4.0,61,0.00,,---,0.00,VWS V14.01,2013-04-15 06:38:00,
2013-04-15 01:40:00,58.7,45.3,29.65,SW,228,2.0,4.0,61,0.00,,---,0.00,VWS V14.01,2013-04-15 06:40:00,
2013-04-15 01:43:00,58.7,45.3,29.65,WSW,237,2.0,5.0,61,0.00,,---,0.00,VWS V14.01,2013-04-15 06:43:00,
2013-04-15 01:44:00,58.7,45.3,29.66,SSW,198,1.0,3.0,61,0.00,,---,0.00,VWS V14.01,2013-04-15 06:44:00,
2013-04-15 01:46:00,58.7,45.3,29.66,SSW,198,0.0,4.0,61,0.00,,---,0.00,VWS V14.01,2013-04-15 06:46:00,
2013-04-15 01:48:00,58.6,45.6,29.66,WSW,255,1.0,5.0,62,0.00,,---,0.00,VWS V14.01,2013-04-15 06:48:00,
2013-04-15 01:49:00,58.6,45.6,29.66,SW,233,3.0,3.0,62,0.00,,---,0.00,VWS V14.01,2013-04-15 06:49:00,
2013-04-15 01:52:00,58.4,45.5,29.66,South,179,1.0,5.0,62,0.00,,---,0.00,VWS V14.01,2013-04-15 06:52:00,
2013-04-15 01:53:00,58.4,45.5,29.66,SSW,203,4.0,4.0,62,0.00,,---,0.00,VWS V14.01,2013-04-15 06:53:00,
2013-04-15 01:54:00,58.4,45.5,29.66,SW,217,15.0,15.0,62,0.00,,---,0.00,VWS V14.01,2013-04-15 06:54:00,
2013-04-15 01:56:00,58.4,45.5,29.66,SSW,210,1.0,1.0,62,0.00,,---,0.00,VWS V14.01,2013-04-15 06:56:00,
2013-04-15 02:00:00,58.4,45.5,29.67,South,169,8.0,10.0,62,0.00,,---,0.00,VWS V14.01,2013-04-15 07:00:00,
2013-04-15 02:01:00,58.4,45.5,29.67,SE,139,3.0,8.0,62,0.00,,---,0.00,VWS V14.01,2013-04-15 07:01:00,
2013-04-15 02:02:00,58.4,45.5,29.67,South,188,4.0,4.0,62,0.00,,---,0.00,VWS V14.01,2013-04-15 07:02:00,
2013-04-15 02:05:00,58.4,45.5,29.67,SSW,198,1.0,5.0,62,0.00,,---,0.00,VWS V14.01,2013-04-15 07:05:00,
2013-04-15 02:41:00,59.3,45.9,29.67,SW,224,7.0,9.0,61,0.00,,---,0.00,VWS V14.01,2013-04-15 07:41:00,
2013-04-15 02:42:00,59.3,45.9,29.67,SE,129,3.0,10.0,61,0.00,,---,0.00,VWS V14.01,2013-04-15 07:42:00,
2013-04-15 02:45:00,59.3,46.3,29.67,WNW,294,9.0,9.0,62,0.00,,---,0.00,VWS V14.01,2013-04-15 07:45:00,
2013-04-15 02:48:00,59.2,46.2,29.67,SE,127,4.0,14.0,62,0.00,,---,0.00,VWS V14.01,2013-04-15 07:48:00,
2013-04-15 02:49:00,59.2,46.2,29.67,SSW,203,4.0,6.0,62,0.00,,---,0.00,VWS V14.01,2013-04-15 07:49:00,
2013-04-15 02:50:00,59.2,46.2,29.67,SW,217,11.0,11.0,62,0.00,,---,0.00,VWS V14.01,2013-04-15 07:50:00,
2013-04-15 02:53:00,59.2,46.2,29.67,SW,224,3.0,3.0,62,0.00,,---,0.00,VWS V14.01,2013-04-15 07:53:00,
2013-04-15 02:54:00,59.0,46.0,29.67,SSE,149,8.0,8.0,62,0.00,,---,0.00,VWS V14.01,2013-04-15 07:54:00,
2013-04-15 02:57:00,59.0,46.4,29.67,SW,215,2.0,5.0,63,0.00,,---,0.00,VWS V14.01,2013-04-15 07:57:00,
2013-04-15 02:58:00,59.0,46.4,29.67,SSW,203,2.0,3.0,63,0.00,,---,0.00,VWS V14.01,2013-04-15 07:58:00,
2013-04-15 03:00:00,59.0,46.4,29.67,SSW,200,2.0,7.0,63,0.00,,---,0.00,VWS V14.01,2013-04-15 08:00:00,
2013-04-15 03:02:00,58.9,46.3,29.67,South,184,12.0,12.0,63,0.00,,---,0.00,VWS V14.01,2013-04-15 08:02:00,
2013-04-15 03:04:00,58.9,46.3,29.67,WSW,252,5.0,6.0,63,0.00,,---,0.00,VWS V14.01,2013-04-15 08:04:00,
2013-04-15 03:07:00,58.9,46.3,29.67,South,189,5.0,7.0,63,0.00,,---,0.00,VWS V14.01,2013-04-15 08:07:00,
2013-04-15 03:09:00,58.7,46.2,29.67,South,190,6.0,14.0,63,0.00,,---,0.00,VWS V14.01,2013-04-15 08:09:00,
2013-04-15 03:10:00,58.7,46.2,29.67,SSW,194,4.0,4.0,63,0.00,,---,0.00,VWS V14.01,2013-04-15 08:10:00,
2013-04-15 03:13:00,58.7,46.2,29.67,SSW,199,4.0,9.0,63,0.00,,---,0.00,VWS V14.01,2013-04-15 08:13:00,
2013-04-15 03:16:00,58.7,46.2,29.67,SSE,164,1.0,6.0,63,0.00,,---,0.00,VWS V14.01,2013-04-15 08:16:00,
2013-04-15 03:18:00,58.7,46.2,29.67,WSW,253,3.0,7.0,63,0.00,,---,0.00,VWS V14.01,2013-04-15 08:18:00,
2013-04-15 03:19:00,58.7,46.2,29.67,WSW,243,4.0,6.0,63,0.00,,---,0.00,VWS V14.01,2013-04-15 08:19:00,
2013-04-15 03:22:00,58.6,46.5,29.67,South,191,12.0,12.0,64,0.00,,---,0.00,VWS V14.01,2013-04-15 08:22:00,
2013-04-15 03:23:00,58.6,46.5,29.67,WSW,251,2.0,2.0,64,0.00,,---,0.00,VWS V14.01,2013-04-15 08:23:00,
2013-04-15 03:24:00,58.6,46.5,29.67,SW,228,6.0,12.0,64,0.00,,---,0.00,VWS V14.01,2013-04-15 08:24:00,
2013-04-15 03:28:00,58.4,46.3,29.66,SW,231,1.0,2.0,64,0.00,,---,0.00,VWS V14.01,2013-04-15 08:28:00,
2013-04-15 03:29:00,58.4,46.3,29.66,SSE,153,2.0,6.0,64,0.00,,---,0.00,VWS V14.01,2013-04-15 08:29:00,
2013-04-15 03:31:00,58.4,46.3,29.66,SSW,210,12.0,12.0,64,0.00,,---,0.00,VWS V14.01,2013-04-15 08:31:00,
2013-04-15 03:34:00,58.3,46.6,29.66,South,187,6.0,13.0,65,0.00,,---,0.00,VWS V14.01,2013-04-15 08:34:00,
2013-04-15 03:36:00,58.3,46.6,29.66,SSE,150,3.0,3.0,65,0.00,,---,0.00,VWS V14.01,2013-04-15 08:36:00,
2013-04-15 03:38:00,58.3,46.6,29.66,SW,220,3.0,13.0,65,0.00,,---,0.00,VWS V14.01,2013-04-15 08:38:00,
2013-04-15 03:40:00,58.3,46.6,29.66,SE,133,5.0,11.0,65,0.00,,---,0.00,VWS V14.01,2013-04-15 08:40:00,
2013-04-15 03:42:00,58.3,46.6,29.66,SSE,150,3.0,7.0,65,0.00,,---,0.00,VWS V14.01,2013-04-15 08:42:00,
2013-04-15 03:45:00,58.1,46.4,29.67,ESE,111,6.0,14.0,65,0.00,,---,0.00,VWS V14.01,2013-04-15 08:45:00,
2013-04-15 03:48:00,58.1,46.4,29.67,NNW,328,3.0,9.0,65,0.00,,---,0.00,VWS V14.01,2013-04-15 08:48:00,
2013-04-15 03:49:00,58.1,46.4,29.67,WNW,295,4.0,6.0,65,0.00,,---,0.00,VWS V14.01,2013-04-15 08:49:00,
2013-04-15 03:51:00,58.1,46.4,29.67,SW,221,8.0,13.0,65,0.00,,---,0.00,VWS V14.01,2013-04-15 08:51:00,
2013-04-15 03:53:00,58.1,46.4,29.67,SW,215,0.0,5.0,65,0.00,,---,0.00,VWS V14.01,2013-04-15 08:53:00,
2013-04-15 03:55:00,58.1,46.4,29.67,SW,226,0.0,5.0,65,0.00,,---,0.00,VWS V14.01,2013-04-15 08:55:00,
2013-04-15 03:57:00,58.0,46.7,29.67,South,182,4.0,9.0,66,0.00,,---,0.00,VWS V14.01,2013-04-15 08:57:00,
2013-04-15 03:58:00,58.0,46.7,29.67,SSW,213,2.0,3.0,66,0.00,,---,0.00,VWS V14.01,2013-04-15 08:58:00,
2013-04-15 04:02:00,57.8,46.5,29.67,SSE,153,4.0,6.0,66,0.00,,---,0.00,VWS V14.01,2013-04-15 09:02:00,
2013-04-15 04:03:00,57.8,46.5,29.67,SW,233,3.0,7.0,66,0.00,,---,0.00,VWS V14.01,2013-04-15 09:03:00,
2013-04-15 04:04:00,57.8,46.5,29.67,South,169,8.0,8.0,66,0.00,,---,0.00,VWS V14.01,2013-04-15 09:04:00,
2013-04-15 04:05:00,57.8,46.5,29.67,SW,231,4.0,8.0,66,0.00,,---,0.00,VWS V14.01,2013-04-15 09:05:00,
2013-04-15 04:07:00,57.6,46.7,29.67,East,89,1.0,4.0,67,0.00,,---,0.00,VWS V14.01,2013-04-15 09:07:00,
2013-04-15 04:09:00,57.6,46.7,29.67,SW,224,2.0,3.0,67,0.00,,---,0.00,VWS V14.01,2013-04-15 09:09:00,
2013-04-15 04:10:00,57.6,46.7,29.67,SW,221,0.0,3.0,67,0.00,,---,0.00,VWS V14.01,2013-04-15 09:10:00,
2013-04-15 04:11:00,57.5,46.6,29.67,West,269,2.0,4.0,67,0.00,,---,0.00,VWS V14.01,2013-04-15 09:11:00,
2013-04-15 04:13:00,57.5,46.6,29.67,SW,217,5.0,6.0,67,0.00,,---,0.00,VWS V14.01,2013-04-15 09:13:00,
2013-04-15 04:15:00,57.5,46.6,29.67,SE,131,1.0,4.0,67,0.00,,---,0.00,VWS V14.01,2013-04-15 09:15:00,
2013-04-15 04:19:00,57.3,46.5,29.67,SW,215,3.0,3.0,67,0.00,,---,0.00,VWS V14.01,2013-04-15 09:19:00,
2013-04-15 04:20:00,57.3,46.8,29.67,SSW,195,3.0,4.0,68,0.00,,---,0.00,VWS V14.01,2013-04-15 09:20:00,
2013-04-15 04:21:00,57.3,46.8,29.67,South,185,3.0,3.0,68,0.00,,---,0.00,VWS V14.01,2013-04-15 09:21:00,
2013-04-15 04:24:00,57.3,46.8,29.67,SSW,210,3.0,5.0,68,0.00,,---,0.00,VWS V14.01,2013-04-15 09:24:00,
2013-04-15 04:25:00,57.3,46.8,29.67,SSW,192,2.0,5.0,68,0.00,,---,0.00,VWS V14.01,2013-04-15 09:25:00,
2013-04-15 04:27:00,57.3,46.8,29.67,ENE,67,0.0,1.0,68,0.00,,---,0.00,VWS V14.01,2013-04-15 09:27:00,
2013-04-15 04:30:00,57.2,46.8,29.66,SSW,200,3.0,5.0,68,0.00,,---,0.00,VWS V14.01,2013-04-15 09:30:00,
2013-04-15 04:32:00,57.2,46.8,29.66,East,88,2.0,2.0,68,0.00,,---,0.00,VWS V14.01,2013-04-15 09:32:00,
2013-04-15 04:34:00,57.2,46.8,29.66,SSW,194,0.0,3.0,68,0.00,,---,0.00,VWS V14.01,2013-04-15 09:34:00,
2013-04-15 04:36:00,57.2,46.8,29.66,ESE,104,2.0,3.0,68,0.00,,---,0.00,VWS V14.01,2013-04-15 09:36:00,
2013-04-15 04:37:00,57.2,46.8,29.66,SW,214,3.0,5.0,68,0.00,,---,0.00,VWS V14.01,2013-04-15 09:37:00,
2013-04-15 04:39:00,57.2,46.8,29.66,SE,136,3.0,3.0,68,0.00,,---,0.00,VWS V14.01,2013-04-15 09:39:00,
2013-04-15 04:42:00,57.2,46.8,29.66,SE,143,2.0,4.0,68,0.00,,---,0.00,VWS V14.01,2013-04-15 09:42:00,
2013-04-15 04:46:00,57.0,46.6,29.65,South,169,4.0,7.0,68,0.00,,---,0.00,VWS V14.01,2013-04-15 09:46:00,
2013-04-15 04:47:00,57.0,46.6,29.65,East,90,3.0,3.0,68,0.00,,---,0.00,VWS V14.01,2013-04-15 09:47:00,
2013-04-15 04:48:00,57.0,46.9,29.65,SSW,193,2.0,5.0,69,0.00,,---,0.00,VWS V14.01,2013-04-15 09:48:00,
2013-04-15 04:49:00,56.9,46.8,29.65,SW,215,0.0,4.0,69,0.00,,---,0.00,VWS V14.01,2013-04-15 09:49:00,
2013-04-15 04:53:00,56.7,46.7,29.65,ESE,108,3.0,9.0,69,0.00,,---,0.00,VWS V14.01,2013-04-15 09:53:00,
2013-04-15 04:54:00,56.7,46.7,29.65,NNE,25,1.0,7.0,69,0.00,,---,0.00,VWS V14.01,2013-04-15 09:54:00,
2013-04-15 04:55:00,56.7,46.7,29.65,SSW,202,2.0,2.0,69,0.00,,---,0.00,VWS V14.01,2013-04-15 09:55:00,
2013-04-15 04:58:00,56.7,46.7,29.66,West,268,1.0,1.0,69,0.00,,---,0.00,VWS V14.01,2013-04-15 09:58:00,
2013-04-15 05:00:00,56.7,47.0,29.66,West,259,2.0,4.0,70,0.00,,---,0.00,VWS V14.01,2013-04-15 10:00:00,
2013-04-15 05:02:00,56.7,47.0,29.66,SW,228,3.0,5.0,70,0.00,,---,0.00,VWS V14.01,2013-04-15 10:02:00,
2013-04-15 05:03:00,56.7,46.7,29.66,West,261,0.0,4.0,69,0.00,,---,0.00,VWS V14.01,2013-04-15 10:03:00,
2013-04-15 05:05:00,56.7,47.0,29.66,SE,129,0.0,4.0,70,0.00,,---,0.00,VWS V14.01,2013-04-15 10:05:00,
2013-04-15 05:08:00,56.7,47.0,29.66,SW,216,9.0,9.0,70,0.00,,---,0.00,VWS V14.01,2013-04-15 10:08:00,
2013-04-15 05:09:00,56.7,47.0,29.66,WSW,257,4.0,4.0,70,0.00,,---,0.00,VWS V14.01,2013-04-15 10:09:00,
2013-04-15 05:12:00,56.7,46.7,29.66,NW,317,3.0,3.0,69,0.00,,---,0.00,VWS V14.01,2013-04-15 10:12:00,
2013-04-15 05:14:00,56.9,46.8,29.66,ESE,112,2.0,2.0,69,0.00,,---,0.00,VWS V14.01,2013-04-15 10:14:00,
2013-04-15 05:15:00,56.9,46.8,29.66,SSW,205,4.0,7.0,69,0.00,,---,0.00,VWS V14.01,2013-04-15 10:15:00,
2013-04-15 05:18:00,56.9,47.2,29.66,WSW,255,1.0,3.0,70,0.00,,---,0.00,VWS V14.01,2013-04-15 10:18:00,
2013-04-15 05:19:00,56.9,47.2,29.66,SSW,208,2.0,2.0,70,0.00,,---,0.00,VWS V14.01,2013-04-15 10:19:00,
2013-04-15 05:20:00,56.9,47.2,29.66,SSW,208,2.0,2.0,70,0.00,,---,0.00,VWS V14.01,2013-04-15 10:20:00,
2013-04-15 05:21:00,56.7,47.0,29.66,SE,134,5.0,5.0,70,0.00,,---,0.00,VWS V14.01,2013-04-15 10:21:00,
2013-04-15 05:24:00,56.7,47.0,29.66,SE,133,1.0,6.0,70,0.00,,---,0.00,VWS V14.01,2013-04-15 10:24:00,
2013-04-15 05:25:00,56.7,47.0,29.66,SW,221,2.0,2.0,70,0.00,,---,0.00,VWS V14.01,2013-04-15 10:25:00,
2013-04-15 05:29:00,56.7,47.0,29.66,SE,131,3.0,6.0,70,0.00,,---,0.00,VWS V14.01,2013-04-15 10:29:00,
2013-04-15 05:30:00,56.7,47.4,29.66,SSE,148,2.0,5.0,71,0.00,,---,0.00,VWS V14.01,2013-04-15 10:30:00,
2013-04-15 05:31:00,56.7,47.4,29.66,SW,227,1.0,4.0,71,0.00,,---,0.00,VWS V14.01,2013-04-15 10:31:00,
2013-04-15 05:34:00,56.6,47.3,29.66,NW,323,2.0,6.0,71,0.00,,---,0.00,VWS V14.01,2013-04-15 10:34:00,
2013-04-15 05:36:00,56.6,47.3,29.66,ENE,60,2.0,4.0,71,0.00,,---,0.00,VWS V14.01,2013-04-15 10:36:00,
2013-04-15 05:37:00,56.6,47.3,29.66,SSE,158,4.0,4.0,71,0.00,,---,0.00,VWS V14.01,2013-04-15 10:37:00,
2013-04-15 05:38:00,56.6,47.3,29.66,NW,326,4.0,5.0,71,0.00,,---,0.00,VWS V14.01,2013-04-15 10:38:00,
2013-04-15 05:39:00,56.6,47.3,29.66,SSW,203,1.0,5.0,71,0.00,,---,0.00,VWS V14.01,2013-04-15 10:39:00,
2013-04-15 05:42:00,56.5,47.2,29.66,SW,214,4.0,4.0,71,0.00,,---,0.00,VWS V14.01,2013-04-15 10:42:00,
2013-04-15 05:43:00,56.5,47.2,29.66,SW,231,6.0,9.0,71,0.00,,---,0.00,VWS V14.01,2013-04-15 10:43:00,
2013-04-15 05:44:00,56.5,47.2,29.66,SSW,211,1.0,2.0,71,0.00,,---,0.00,VWS V14.01,2013-04-15 10:44:00,
2013-04-15 05:45:00,56.5,47.2,29.66,SSW,199,4.0,6.0,71,0.00,,---,0.00,VWS V14.01,2013-04-15 10:45:00,
2013-04-15 05:48:00,56.5,47.2,29.66,SSE,160,1.0,2.0,71,0.00,,---,0.00,VWS V14.01,2013-04-15 10:48:00,
2013-04-15 05:50:00,56.5,47.2,29.66,SW,217,0.0,3.0,71,0.00,,---,0.00,VWS V14.01,2013-04-15 10:50:00,
2013-04-15 05:55:00,56.5,47.2,29.66,SW,231,2.0,6.0,71,0.00,,---,0.00,VWS V14.01,2013-04-15 10:55:00,
2013-04-15 05:56:00,56.5,47.2,29.66,South,186,3.0,6.0,71,0.00,,---,0.00,VWS V14.01,2013-04-15 10:56:00,
2013-04-15 05:57:00,56.5,47.2,29.66,SE,141,2.0,6.0,71,0.00,,---,0.00,VWS V14.01,2013-04-15 10:57:00,
2013-04-15 06:02:00,56.5,47.2,29.67,WSW,247,4.0,4.0,71,0.00,,---,0.00,VWS V14.01,2013-04-15 11:02:00,
2013-04-15 06:03:00,56.5,47.2,29.67,South,191,2.0,4.0,71,0.00,,---,0.00,VWS V14.01,2013-04-15 11:03:00,
2013-04-15 06:08:00,56.5,47.2,29.67,WSW,237,2.0,7.0,71,0.00,,---,0.00,VWS V14.01,2013-04-15 11:08:00,
2013-04-15 06:09:00,56.5,47.2,29.67,South,174,4.0,4.0,71,0.00,,---,0.00,VWS V14.01,2013-04-15 11:09:00,
2013-04-15 06:13:00,56.3,47.4,29.67,SW,214,2.0,7.0,72,0.00,,---,0.00,VWS V14.01,2013-04-15 11:13:00,
2013-04-15 06:14:00,56.3,47.4,29.68,SSW,213,2.0,2.0,72,0.00,,---,0.00,VWS V14.01,2013-04-15 11:14:00,
2013-04-15 06:17:00,56.2,47.3,29.68,SW,217,1.0,3.0,72,0.00,,---,0.00,VWS V14.01,2013-04-15 11:17:00,
2013-04-15 06:18:00,56.2,47.3,29.68,WSW,245,1.0,3.0,72,0.00,,---,0.00,VWS V14.01,2013-04-15 11:18:00,
2013-04-15 06:22:00,56.2,47.7,29.68,SSE,167,3.0,4.0,73,0.00,,---,0.00,VWS V14.01,2013-04-15 11:22:00,
2013-04-15 06:23:00,56.2,47.7,29.68,SW,221,2.0,9.0,73,0.00,,---,0.00,VWS V14.01,2013-04-15 11:23:00,
2013-04-15 06:27:00,56.2,47.7,29.68,WSW,240,1.0,7.0,73,0.00,,---,0.00,VWS V14.01,2013-04-15 11:27:00,
2013-04-15 06:28:00,56.2,47.7,29.68,SW,215,3.0,4.0,73,0.00,,---,0.00,VWS V14.01,2013-04-15 11:28:00,
2013-04-15 06:29:00,56.2,47.7,29.69,SSW,212,6.0,6.0,73,0.00,,---,0.00,VWS V14.01,2013-04-15 11:29:00,
2013-04-15 06:32:00,56.2,47.7,29.69,SW,235,2.0,4.0,73,0.00,,---,0.00,VWS V14.01,2013-04-15 11:32:00,
2013-04-15 06:33:00,56.2,47.7,29.69,SW,232,3.0,4.0,73,0.00,,---,0.00,VWS V14.01,2013-04-15 11:33:00,
2013-04-15 06:35:00,56.2,47.7,29.69,NNW,330,2.0,5.0,73,0.00,,---,0.00,VWS V14.01,2013-04-15 11:35:00,
2013-04-15 06:38:00,56.2,47.7,29.69,WNW,287,2.0,2.0,73,0.00,,---,0.00,VWS V14.01,2013-04-15 11:38:00,
2013-04-15 06:39:00,56.2,47.7,29.69,South,184,2.0,3.0,73,0.00,,---,0.00,VWS V14.01,2013-04-15 11:39:00,
2013-04-15 06:41:00,56.2,47.7,29.69,SSW,200,2.0,3.0,73,0.00,,---,0.00,VWS V14.01,2013-04-15 11:41:00,
2013-04-15 06:44:00,56.2,47.7,29.70,SW,221,2.0,4.0,73,0.00,,---,0.00,VWS V14.01,2013-04-15 11:44:00,
2013-04-15 06:46:00,56.2,47.7,29.70,SW,224,2.0,3.0,73,0.00,,---,0.00,VWS V14.01,2013-04-15 11:46:00,
2013-04-15 06:49:00,56.2,48.0,29.70,SSE,162,2.0,4.0,74,0.00,,---,0.00,VWS V14.01,2013-04-15 11:49:00,
2013-04-15 06:52:00,56.2,48.0,29.70,South,184,3.0,4.0,74,0.00,,---,0.00,VWS V14.01,2013-04-15 11:52:00,
2013-04-15 06:56:00,56.2,48.0,29.70,South,174,4.0,6.0,74,0.00,,---,0.00,VWS V14.01,2013-04-15 11:56:00,
2013-04-15 06:57:00,56.2,48.0,29.70,SW,214,3.0,6.0,74,0.00,,---,0.00,VWS V14.01,2013-04-15 11:57:00,
2013-04-15 06:58:00,56.2,48.0,29.70,SW,217,3.0,4.0,74,0.00,,---,0.00,VWS V14.01,2013-04-15 11:58:00,
2013-04-15 07:01:00,56.2,48.0,29.70,WNW,289,4.0,4.0,74,0.00,,---,0.00,VWS V14.01,2013-04-15 12:01:00,
2013-04-15 07:04:00,56.2,48.0,29.70,SSW,202,4.0,5.0,74,0.00,,---,0.00,VWS V14.01,2013-04-15 12:04:00,
2013-04-15 07:05:00,56.2,48.0,29.70,SSW,208,1.0,2.0,74,0.00,,---,0.00,VWS V14.01,2013-04-15 12:05:00,
2013-04-15 07:07:00,56.2,48.0,29.70,SW,228,4.0,6.0,74,0.00,,---,0.00,VWS V14.01,2013-04-15 12:07:00,
2013-04-15 07:10:00,56.0,47.8,29.70,SSW,202,1.0,3.0,74,0.00,,---,0.00,VWS V14.01,2013-04-15 12:10:00,
2013-04-15 07:13:00,56.0,47.8,29.70,WSW,247,3.0,11.0,74,0.00,,---,0.00,VWS V14.01,2013-04-15 12:13:00,
2013-04-15 07:15:00,56.0,48.2,29.71,SSE,166,0.0,3.0,75,0.00,,---,0.00,VWS V14.01,2013-04-15 12:15:00,
2013-04-15 07:16:00,56.0,48.2,29.71,South,176,3.0,3.0,75,0.00,,---,0.00,VWS V14.01,2013-04-15 12:16:00,
2013-04-15 07:18:00,56.0,48.2,29.71,SW,214,1.0,3.0,75,0.00,,---,0.00,VWS V14.01,2013-04-15 12:18:00,
2013-04-15 07:22:00,56.0,48.2,29.71,South,191,3.0,7.0,75,0.00,,---,0.00,VWS V14.01,2013-04-15 12:22:00,
2013-04-15 07:23:00,56.0,48.2,29.71,South,175,0.0,1.0,75,0.00,,---,0.00,VWS V14.01,2013-04-15 12:23:00,
2013-04-15 07:27:00,56.0,48.2,29.71,SSW,212,1.0,7.0,75,0.00,,---,0.00,VWS V14.01,2013-04-15 12:27:00,
2013-04-15 07:28:00,56.0,48.2,29.72,SSW,200,10.0,10.0,75,0.00,,---,0.00,VWS V14.01,2013-04-15 12:28:00,
2013-04-15 07:32:00,56.2,48.4,29.72,South,186,3.0,6.0,75,0.00,,---,0.00,VWS V14.01,2013-04-15 12:32:00,
2013-04-15 07:33:00,56.2,48.4,29.72,SSW,193,3.0,6.0,75,0.00,,---,0.00,VWS V14.01,2013-04-15 12:33:00,
2013-04-15 07:39:00,56.2,48.4,29.72,South,177,2.0,4.0,75,0.00,,---,0.00,VWS V14.01,2013-04-15 12:39:00,
2013-04-15 07:40:00,56.2,48.4,29.72,West,270,1.0,4.0,75,0.00,,---,0.00,VWS V14.01,2013-04-15 12:40:00,
2013-04-15 07:45:00,56.3,48.5,29.71,WSW,239,2.0,4.0,75,0.00,,---,0.00,VWS V14.01,2013-04-15 12:45:00,
2013-04-15 07:47:00,56.3,48.5,29.71,SSE,164,0.0,6.0,75,0.00,,---,0.00,VWS V14.01,2013-04-15 12:47:00,
2013-04-15 07:48:00,56.3,48.5,29.71,SW,229,1.0,2.0,75,0.00,,---,0.00,VWS V14.01,2013-04-15 12:48:00,
2013-04-15 07:50:00,56.3,48.5,29.71,SW,227,1.0,2.0,75,0.00,,---,0.00,VWS V14.01,2013-04-15 12:50:00,
2013-04-15 07:52:00,56.5,49.0,29.71,South,181,2.0,3.0,76,0.00,,---,0.00,VWS V14.01,2013-04-15 12:52:00,
2013-04-15 07:55:00,56.5,48.7,29.71,South,188,1.0,3.0,75,0.00,,---,0.00,VWS V14.01,2013-04-15 12:55:00,
2013-04-15 07:56:00,56.5,48.7,29.71,South,188,0.0,3.0,75,0.00,,---,0.00,VWS V14.01,2013-04-15 12:56:00,
2013-04-15 07:58:00,56.6,48.8,29.71,ENE,77,1.0,5.0,75,0.00,,---,0.00,VWS V14.01,2013-04-15 12:58:00,
2013-04-15 08:01:00,56.6,48.8,29.71,SW,230,1.0,2.0,75,0.00,,---,0.00,VWS V14.01,2013-04-15 13:01:00,
2013-04-15 08:02:00,56.6,48.8,29.71,SSW,203,3.0,4.0,75,0.00,,---,0.00,VWS V14.01,2013-04-15 13:02:00,
2013-04-15 08:05:00,56.6,48.8,29.71,WNW,302,1.0,6.0,75,0.00,,---,0.00,VWS V14.01,2013-04-15 13:05:00,
2013-04-15 08:06:00,56.7,48.9,29.71,SSW,200,1.0,2.0,75,0.00,,---,0.00,VWS V14.01,2013-04-15 13:06:00,
2013-04-15 08:07:00,56.7,48.9,29.71,WSW,241,2.0,3.0,75,0.00,,---,0.00,VWS V14.01,2013-04-15 13:07:00,
2013-04-15 08:11:00,56.7,48.9,29.71,South,177,1.0,1.0,75,0.00,,---,0.00,VWS V14.01,2013-04-15 13:11:00,
2013-04-15 08:12:00,56.9,49.1,29.71,SSW,206,4.0,5.0,75,0.00,,---,0.00,VWS V14.01,2013-04-15 13:12:00,
2013-04-15 08:18:00,57.0,49.2,29.72,ESE,105,2.0,5.0,75,0.00,,---,0.00,VWS V14.01,2013-04-15 13:18:00,
2013-04-15 08:19:00,57.0,49.2,29.72,SSW,200,3.0,10.0,75,0.00,,---,0.00,VWS V14.01,2013-04-15 13:19:00,
2013-04-15 08:23:00,57.0,49.2,29.72,WSW,249,7.0,7.0,75,0.00,,---,0.00,VWS V14.01,2013-04-15 13:23:00,
2013-04-15 08:24:00,57.0,49.2,29.72,WSW,250,2.0,5.0,75,0.00,,---,0.00,VWS V14.01,2013-04-15 13:24:00,
2013-04-15 08:26:00,57.2,49.4,29.72,SSE,167,5.0,5.0,75,0.00,,---,0.00,VWS V14.01,2013-04-15 13:26:00,
2013-04-15 08:28:00,57.0,49.2,29.72,South,181,0.0,7.0,75,0.00,,---,0.00,VWS V14.01,2013-04-15 13:28:00,
2013-04-15 08:30:00,57.2,49.4,29.72,SW,230,1.0,2.0,75,0.00,,---,0.00,VWS V14.01,2013-04-15 13:30:00,
2013-04-15 08:33:00,57.2,49.4,29.72,WSW,250,1.0,5.0,75,0.00,,---,0.00,VWS V14.01,2013-04-15 13:33:00,
2013-04-15 08:35:00,57.2,49.4,29.72,West,259,2.0,3.0,75,0.00,,---,0.00,VWS V14.01,2013-04-15 13:35:00,
2013-04-15 08:38:00,57.2,49.4,29.72,South,172,0.0,0.0,75,0.00,,---,0.00,VWS V14.01,2013-04-15 13:38:00,
2013-04-15 08:41:00,57.3,49.5,29.72,WSW,243,1.0,6.0,75,0.00,,---,0.00,VWS V14.01,2013-04-15 13:41:00,
2013-04-15 08:43:00,57.3,49.8,29.72,SW,217,3.0,5.0,76,0.00,,---,0.00,VWS V14.01,2013-04-15 13:43:00,
2013-04-15 08:47:00,57.3,49.5,29.71,South,171,1.0,1.0,75,0.00,,---,0.00,VWS V14.01,2013-04-15 13:47:00,
2013-04-15 08:48:00,57.5,50.0,29.71,South,177,1.0,2.0,76,0.00,,---,0.00,VWS V14.01,2013-04-15 13:48:00,
2013-04-15 08:50:00,57.5,50.0,29.71,WSW,247,3.0,3.0,76,0.00,,---,0.00,VWS V14.01,2013-04-15 13:50:00,
2013-04-15 08:52:00,57.5,49.7,29.71,ESE,108,4.0,4.0,75,0.00,,---,0.00,VWS V14.01,2013-04-15 13:52:00,
2013-04-15 08:54:00,57.6,50.1,29.71,SE,134,0.0,5.0,76,0.00,,---,0.00,VWS V14.01,2013-04-15 13:54:00,
2013-04-15 08:57:00,57.6,49.8,29.71,SW,226,5.0,9.0,75,0.00,,---,0.00,VWS V14.01,2013-04-15 13:57:00,
2013-04-15 08:59:00,57.6,49.8,29.71,SW,224,2.0,5.0,75,0.00,,---,0.00,VWS V14.01,2013-04-15 13:59:00,
2013-04-15 09:03:00,57.8,50.3,29.71,SSW,211,3.0,5.0,76,0.00,,---,0.00,VWS V14.01,2013-04-15 14:03:00,
2013-04-15 09:04:00,57.8,50.3,29.71,North,0,0.0,7.0,76,0.00,,---,0.00,VWS V14.01,2013-04-15 14:04:00,
2013-04-15 09:06:00,57.8,50.3,29.71,East,101,3.0,4.0,76,0.00,,---,0.00,VWS V14.01,2013-04-15 14:06:00,
2013-04-15 09:08:00,58.0,50.5,29.71,SSW,193,13.0,13.0,76,0.00,,---,0.00,VWS V14.01,2013-04-15 14:08:00,
2013-04-15 09:09:00,58.0,50.5,29.71,NW,313,6.0,13.0,76,0.00,,---,0.00,VWS V14.01,2013-04-15 14:09:00,
2013-04-15 09:12:00,58.0,50.5,29.71,SSE,163,1.0,9.0,76,0.00,,---,0.00,VWS V14.01,2013-04-15 14:12:00,
2013-04-15 09:15:00,58.0,50.5,29.70,SSW,207,3.0,15.0,76,0.00,,---,0.00,VWS V14.01,2013-04-15 14:15:00,
2013-04-15 09:17:00,58.0,50.5,29.70,SSE,165,3.0,6.0,76,0.00,,---,0.00,VWS V14.01,2013-04-15 14:17:00,
2013-04-15 09:20:00,58.1,50.6,29.70,SSE,160,1.0,4.0,76,0.00,,---,0.00,VWS V14.01,2013-04-15 14:20:00,
2013-04-15 09:22:00,58.1,50.6,29.70,SSW,205,4.0,4.0,76,0.00,,---,0.00,VWS V14.01,2013-04-15 14:22:00,
2013-04-15 09:26:00,58.3,50.8,29.70,West,259,1.0,3.0,76,0.00,,---,0.00,VWS V14.01,2013-04-15 14:26:00,
2013-04-15 09:27:00,58.4,50.9,29.70,SE,141,9.0,9.0,76,0.00,,---,0.00,VWS V14.01,2013-04-15 14:27:00,
2013-04-15 09:32:00,58.7,51.2,29.69,SW,221,2.0,4.0,76,0.00,,---,0.00,VWS V14.01,2013-04-15 14:32:00,
2013-04-15 09:33:00,58.7,51.2,29.69,SE,135,2.0,4.0,76,0.00,,---,0.00,VWS V14.01,2013-04-15 14:33:00,
2013-04-15 09:38:00,58.9,51.0,29.69,SW,233,5.0,12.0,75,0.00,,---,0.00,VWS V14.01,2013-04-15 14:38:00,
2013-04-15 09:39:00,58.9,51.0,29.69,SSW,192,7.0,7.0,75,0.00,,---,0.00,VWS V14.01,2013-04-15 14:39:00,
2013-04-15 09:43:00,58.9,51.0,29.70,North,358,1.0,3.0,75,0.00,,---,0.00,VWS V14.01,2013-04-15 14:43:00,
2013-04-15 09:44:00,58.9,51.0,29.70,SSW,195,5.0,5.0,75,0.00,,---,0.00,VWS V14.01,2013-04-15 14:44:00,
2013-04-15 09:45:00,58.9,51.0,29.70,South,182,4.0,6.0,75,0.00,,---,0.00,VWS V14.01,2013-04-15 14:45:00,
2013-04-15 09:49:00,59.0,51.1,29.70,West,274,3.0,3.0,75,0.00,,---,0.00,VWS V14.01,2013-04-15 14:49:00,
2013-04-15 09:50:00,59.0,51.1,29.70,SSW,196,5.0,5.0,75,0.00,,---,0.00,VWS V14.01,2013-04-15 14:50:00,
2013-04-15 09:55:00,59.2,51.3,29.70,South,182,1.0,2.0,75,0.00,,---,0.00,VWS V14.01,2013-04-15 14:55:00,
2013-04-15 09:56:00,59.2,51.3,29.70,SW,219,4.0,6.0,75,0.00,,---,0.00,VWS V14.01,2013-04-15 14:56:00,
2013-04-15 09:57:00,59.3,51.4,29.70,SSW,200,5.0,5.0,75,0.00,,---,0.00,VWS V14.01,2013-04-15 14:57:00,
2013-04-15 10:02:00,59.5,51.6,29.71,SW,227,3.0,5.0,75,0.00,,---,0.00,VWS V14.01,2013-04-15 15:02:00,
2013-04-15 10:03:00,59.5,51.6,29.71,SW,223,4.0,13.0,75,0.00,,---,0.00,VWS V14.01,2013-04-15 15:03:00,
2013-04-15 10:07:00,59.6,51.3,29.71,SW,236,0.0,4.0,74,0.00,,---,0.00,VWS V14.01,2013-04-15 15:07:00,
2013-04-15 10:08:00,59.6,51.3,29.71,WSW,242,4.0,6.0,74,0.00,,---,0.00,VWS V14.01,2013-04-15 15:08:00,
2013-04-15 10:13:00,59.6,51.7,29.71,South,184,1.0,12.0,75,0.00,,---,0.00,VWS V14.01,2013-04-15 15:13:00,
2013-04-15 10:14:00,59.6,51.7,29.70,SSW,210,5.0,11.0,75,0.00,,---,0.00,VWS V14.01,2013-04-15 15:14:00,
2013-04-15 10:18:00,59.9,52.0,29.70,South,172,5.0,10.0,75,0.00,,---,0.00,VWS V14.01,2013-04-15 15:18:00,
2013-04-15 10:19:00,59.9,52.0,29.70,SSW,193,3.0,7.0,75,0.00,,---,0.00,VWS V14.01,2013-04-15 15:19:00,
2013-04-15 10:23:00,60.1,52.2,29.70,SW,226,0.0,3.0,75,0.00,,---,0.00,VWS V14.01,2013-04-15 15:23:00,
2013-04-15 10:24:00,60.2,52.3,29.70,SW,217,0.0,2.0,75,0.00,,---,0.00,VWS V14.01,2013-04-15 15:24:00,
2013-04-15 10:25:00,60.2,51.9,29.70,SW,217,1.0,2.0,74,0.00,,---,0.00,VWS V14.01,2013-04-15 15:25:00,
2013-04-15 10:28:00,60.4,52.1,29.71,SW,234,7.0,7.0,74,0.00,,---,0.00,VWS V14.01,2013-04-15 15:28:00,
2013-04-15 10:30:00,60.4,52.1,29.71,SSE,157,3.0,7.0,74,0.00,,---,0.00,VWS V14.01,2013-04-15 15:30:00,
2013-04-15 10:35:00,60.2,51.9,29.71,SW,236,2.0,7.0,74,0.00,,---,0.00,VWS V14.01,2013-04-15 15:35:00,
2013-04-15 10:37:00,60.2,51.9,29.71,WSW,250,1.0,4.0,74,0.00,,---,0.00,VWS V14.01,2013-04-15 15:37:00,
2013-04-15 10:41:00,60.1,52.2,29.71,WSW,238,2.0,7.0,75,0.00,,---,0.00,VWS V14.01,2013-04-15 15:41:00,
2013-04-15 10:43:00,60.1,52.2,29.71,WSW,242,5.0,10.0,75,0.00,,---,0.00,VWS V14.01,2013-04-15 15:43:00,
2013-04-15 10:44:00,60.1,52.2,29.72,West,271,5.0,10.0,75,0.00,,---,0.00,VWS V14.01,2013-04-15 15:44:00,
2013-04-15 10:48:00,59.9,52.0,29.72,SSW,195,5.0,8.0,75,0.00,,---,0.00,VWS V14.01,2013-04-15 15:48:00,
2013-04-15 10:53:00,59.8,52.2,29.72,SW,215,12.0,12.0,76,0.00,,---,0.00,VWS V14.01,2013-04-15 15:53:00,
2013-04-15 10:54:00,59.8,52.2,29.72,WSW,255,5.0,12.0,76,0.00,,---,0.00,VWS V14.01,2013-04-15 15:54:00,
2013-04-15 10:58:00,59.9,52.3,29.72,West,280,5.0,6.0,76,0.00,,---,0.00,VWS V14.01,2013-04-15 15:58:00,
2013-04-15 10:59:00,59.9,52.3,29.73,SW,220,4.0,10.0,76,0.00,,---,0.00,VWS V14.01,2013-04-15 15:59:00,
2013-04-15 11:04:00,59.9,52.7,29.73,SSW,206,0.0,6.0,77,0.00,,---,0.00,VWS V14.01,2013-04-15 16:04:00,
2013-04-15 11:05:00,59.9,52.7,29.73,South,172,0.0,2.0,77,0.00,,---,0.00,VWS V14.01,2013-04-15 16:05:00,
2013-04-15 11:06:00,59.9,52.7,29.73,South,190,3.0,10.0,77,0.00,,---,0.00,VWS V14.01,2013-04-15 16:06:00,
2013-04-15 11:09:00,59.9,52.7,29.73,WSW,257,5.0,6.0,77,0.00,,---,0.00,VWS V14.01,2013-04-15 16:09:00,
2013-04-15 11:10:00,59.9,52.7,29.73,WSW,245,2.0,6.0,77,0.00,,---,0.00,VWS V14.01,2013-04-15 16:10:00,
2013-04-15 11:11:00,59.9,52.7,29.73,South,175,0.0,9.0,77,0.00,,---,0.00,VWS V14.01,2013-04-15 16:11:00,
2013-04-15 11:15:00,59.9,52.7,29.73,West,280,5.0,5.0,77,0.00,,---,0.00,VWS V14.01,2013-04-15 16:15:00,
2013-04-15 11:16:00,59.9,52.7,29.73,West,260,2.0,6.0,77,0.00,,---,0.00,VWS V14.01,2013-04-15 16:16:00,
2013-04-15 11:18:00,59.9,52.7,29.73,SW,219,1.0,6.0,77,0.00,,---,0.00,VWS V14.01,2013-04-15 16:18:00,
2013-04-15 11:20:00,60.1,52.9,29.73,SW,229,6.0,6.0,77,0.00,,---,0.00,VWS V14.01,2013-04-15 16:20:00,
2013-04-15 11:22:00,60.1,52.9,29.73,SSE,155,7.0,10.0,77,0.00,,---,0.00,VWS V14.01,2013-04-15 16:22:00,
2013-04-15 11:23:00,60.1,52.9,29.73,WSW,252,0.0,10.0,77,0.00,,---,0.00,VWS V14.01,2013-04-15 16:23:00,
2013-04-15 11:26:00,60.1,52.9,29.73,West,262,4.0,5.0,77,0.00,,---,0.00,VWS V14.01,2013-04-15 16:26:00,
2013-04-15 11:27:00,60.1,52.9,29.73,South,169,3.0,4.0,77,0.00,,---,0.00,VWS V14.01,2013-04-15 16:27:00,
2013-04-15 11:29:00,60.2,53.0,29.73,SW,229,3.0,6.0,77,0.00,,---,0.00,VWS V14.01,2013-04-15 16:29:00,
2013-04-15 11:32:00,60.4,53.2,29.73,SW,236,2.0,7.0,77,0.00,,---,0.00,VWS V14.01,2013-04-15 16:32:00,
2013-04-15 11:33:00,60.4,53.2,29.73,WSW,242,3.0,7.0,77,0.00,,---,0.00,VWS V14.01,2013-04-15 16:33:00,
2013-04-15 11:35:00,60.5,53.3,29.73,SSW,210,5.0,9.0,77,0.00,,---,0.00,VWS V14.01,2013-04-15 16:35:00,
2013-04-15 11:38:00,60.7,53.5,29.73,SSE,161,4.0,8.0,77,0.00,,---,0.00,VWS V14.01,2013-04-15 16:38:00,
2013-04-15 11:39:00,60.9,53.7,29.73,West,259,6.0,6.0,77,0.00,,---,0.00,VWS V14.01,2013-04-15 16:39:00,
2013-04-15 11:42:00,60.9,53.3,29.73,WSW,240,2.0,10.0,76,0.00,,---,0.00,VWS V14.01,2013-04-15 16:42:00,
2013-04-15 11:44:00,60.9,53.7,29.73,South,186,8.0,8.0,77,0.00,,---,0.00,VWS V14.01,2013-04-15 16:44:00,
2013-04-15 11:45:00,60.9,53.7,29.73,WSW,239,4.0,9.0,77,0.00,,---,0.00,VWS V14.01,2013-04-15 16:45:00,
2013-04-15 11:47:00,60.9,53.7,29.73,SSW,192,5.0,6.0,77,0.00,,---,0.00,VWS V14.01,2013-04-15 16:47:00,
2013-04-15 11:49:00,60.9,53.7,29.73,WSW,249,2.0,4.0,77,0.00,,---,0.00,VWS V14.01,2013-04-15 16:49:00,
2013-04-15 11:51:00,60.9,53.7,29.73,WSW,256,10.0,10.0,77,0.00,,---,0.00,VWS V14.01,2013-04-15 16:51:00,
2013-04-15 11:54:00,60.9,53.7,29.73,West,267,3.0,5.0,77,0.00,,---,0.00,VWS V14.01,2013-04-15 16:54:00,
2013-04-15 11:56:00,60.9,53.7,29.73,SSW,208,8.0,12.0,77,0.00,,---,0.00,VWS V14.01,2013-04-15 16:56:00,
2013-04-15 11:58:00,60.9,53.7,29.74,SW,226,3.0,5.0,77,0.00,,---,0.00,VWS V14.01,2013-04-15 16:58:00,
2013-04-15 12:01:00,60.9,53.7,29.74,SSW,205,7.0,9.0,77,0.00,,---,0.00,VWS V14.01,2013-04-15 17:01:00,
2013-04-15 12:02:00,60.7,53.5,29.74,SSW,197,3.0,4.0,77,0.00,,---,0.00,VWS V14.01,2013-04-15 17:02:00,
2013-04-15 12:04:00,60.5,53.3,29.74,West,266,2.0,5.0,77,0.00,,---,0.00,VWS V14.01,2013-04-15 17:04:00,
2013-04-15 12:07:00,60.4,53.5,29.74,South,185,2.0,2.0,78,0.00,,---,0.00,VWS V14.01,2013-04-15 17:07:00,
2013-04-15 12:09:00,60.4,53.5,29.74,South,188,4.0,4.0,78,0.00,,---,0.00,VWS V14.01,2013-04-15 17:09:00,
2013-04-15 12:12:00,60.4,53.9,29.74,WSW,247,4.0,7.0,79,0.00,,---,0.00,VWS V14.01,2013-04-15 17:12:00,
2013-04-15 12:13:00,60.4,53.9,29.73,WSW,245,6.0,6.0,79,0.00,,---,0.00,VWS V14.01,2013-04-15 17:13:00,
2013-04-15 12:14:00,60.2,53.7,29.73,SW,236,5.0,9.0,79,0.00,,---,0.00,VWS V14.01,2013-04-15 17:14:00,
2013-04-15 12:17:00,60.2,53.7,29.73,South,190,1.0,2.0,79,0.00,,---,0.00,VWS V14.01,2013-04-15 17:17:00,
2013-04-15 12:19:00,60.2,53.7,29.73,South,181,6.0,6.0,79,0.00,,---,0.00,VWS V14.01,2013-04-15 17:19:00,
2013-04-15 12:21:00,60.2,53.7,29.73,West,259,3.0,6.0,79,0.00,,---,0.00,VWS V14.01,2013-04-15 17:21:00,
2013-04-15 12:23:00,60.1,53.9,29.73,SSW,208,5.0,5.0,80,0.00,,---,0.00,VWS V14.01,2013-04-15 17:23:00,
2013-04-15 12:26:00,60.1,53.9,29.73,SSW,210,0.0,0.0,80,0.00,,---,0.00,VWS V14.01,2013-04-15 17:26:00,
2013-04-15 12:28:00,60.1,53.9,29.73,SSW,205,2.0,4.0,80,0.00,,---,0.00,VWS V14.01,2013-04-15 17:28:00,
2013-04-15 12:29:00,60.1,53.9,29.72,SSE,167,2.0,9.0,80,0.00,,---,0.00,VWS V14.01,2013-04-15 17:29:00,
2013-04-15 12:30:00,60.1,54.3,29.72,SSW,193,5.0,5.0,81,0.00,,---,0.00,VWS V14.01,2013-04-15 17:30:00,
2013-04-15 12:32:00,60.1,54.3,29.72,South,189,3.0,3.0,81,0.00,,---,0.00,VWS V14.01,2013-04-15 17:32:00,
2013-04-15 12:33:00,60.1,54.3,29.72,SSW,207,5.0,5.0,81,0.00,,---,0.00,VWS V14.01,2013-04-15 17:33:00,
2013-04-15 12:35:00,59.9,54.1,29.72,West,280,2.0,2.0,81,0.00,,---,0.00,VWS V14.01,2013-04-15 17:35:00,
2013-04-15 12:37:00,59.9,54.1,29.72,NNW,328,5.0,5.0,81,0.00,,---,0.00,VWS V14.01,2013-04-15 17:37:00,
2013-04-15 12:38:00,59.9,54.1,29.72,West,278,0.0,5.0,81,0.00,,---,0.00,VWS V14.01,2013-04-15 17:38:00,
2013-04-15 12:39:00,59.9,54.1,29.72,SSW,196,2.0,8.0,81,0.00,,---,0.00,VWS V14.01,2013-04-15 17:39:00,
2013-04-15 12:40:00,59.9,54.1,29.72,West,277,3.0,6.0,81,0.00,,---,0.00,VWS V14.01,2013-04-15 17:40:00,
2013-04-15 12:43:00,59.9,54.1,29.72,SW,232,0.0,5.0,81,0.00,,---,0.00,VWS V14.01,2013-04-15 17:43:00,
2013-04-15 12:45:00,59.9,54.4,29.71,ESE,119,6.0,6.0,82,0.00,,---,0.00,VWS V14.01,2013-04-15 17:45:00,
2013-04-15 12:48:00,60.1,54.6,29.71,South,191,2.0,11.0,82,0.00,,---,0.00,VWS V14.01,2013-04-15 17:48:00,
2013-04-15 12:49:00,60.1,54.6,29.71,SSW,200,7.0,10.0,82,0.00,,---,0.00,VWS V14.01,2013-04-15 17:49:00,
2013-04-15 12:51:00,60.2,54.4,29.71,WSW,248,2.0,10.0,81,0.00,,---,0.00,VWS V14.01,2013-04-15 17:51:00,
2013-04-15 12:52:00,60.2,54.4,29.71,South,181,2.0,4.0,81,0.00,,---,0.00,VWS V14.01,2013-04-15 17:52:00,
2013-04-15 12:55:00,60.4,54.5,29.71,WSW,249,1.0,1.0,81,0.00,,---,0.00,VWS V14.01,2013-04-15 17:55:00,
2013-04-15 12:56:00,60.4,54.5,29.71,WNW,288,2.0,2.0,81,0.00,,---,0.00,VWS V14.01,2013-04-15 17:56:00,
2013-04-15 12:57:00,60.4,54.5,29.71,WSW,238,0.0,3.0,81,0.00,,---,0.00,VWS V14.01,2013-04-15 17:57:00,
2013-04-15 12:58:00,60.5,54.7,29.71,WSW,243,1.0,2.0,81,0.00,,---,0.00,VWS V14.01,2013-04-15 17:58:00,
2013-04-15 13:01:00,60.5,54.7,29.71,SE,129,0.0,7.0,81,0.00,,---,0.00,VWS V14.01,2013-04-15 18:01:00,
2013-04-15 13:04:00,60.7,54.8,29.71,SW,236,6.0,6.0,81,0.00,,---,0.00,VWS V14.01,2013-04-15 18:04:00,
2013-04-15 13:05:00,60.7,54.8,29.71,SSW,198,3.0,4.0,81,0.00,,---,0.00,VWS V14.01,2013-04-15 18:05:00,
2013-04-15 13:07:00,60.9,55.0,29.71,NW,321,3.0,6.0,81,0.00,,---,0.00,VWS V14.01,2013-04-15 18:07:00,
2013-04-15 13:08:00,60.9,55.0,29.71,NNW,342,3.0,6.0,81,0.00,,---,0.00,VWS V14.01,2013-04-15 18:08:00,
2013-04-15 13:09:00,60.9,54.7,29.71,SSE,160,4.0,10.0,80,0.00,,---,0.00,VWS V14.01,2013-04-15 18:09:00,
2013-04-15 13:10:00,60.9,54.7,29.71,SW,226,3.0,10.0,80,0.00,,---,0.00,VWS V14.01,2013-04-15 18:10:00,
2013-04-15 13:12:00,60.9,54.7,29.71,SW,217,2.0,3.0,80,0.00,,---,0.00,VWS V14.01,2013-04-15 18:12:00,
2013-04-15 13:14:00,60.9,54.7,29.70,East,82,3.0,3.0,80,0.00,,---,0.00,VWS V14.01,2013-04-15 18:14:00,
2013-04-15 13:15:00,61.0,54.8,29.70,SW,226,2.0,6.0,80,0.00,,---,0.00,VWS V14.01,2013-04-15 18:15:00,
2013-04-15 13:16:00,61.0,54.8,29.70,WSW,255,7.0,7.0,80,0.00,,---,0.00,VWS V14.01,2013-04-15 18:16:00,
2013-04-15 13:20:00,61.3,55.1,29.70,WSW,243,3.0,3.0,80,0.00,,---,0.00,VWS V14.01,2013-04-15 18:20:00,
2013-04-15 13:21:00,61.5,55.3,29.70,West,265,5.0,5.0,80,0.00,,---,0.00,VWS V14.01,2013-04-15 18:21:00,
2013-04-15 13:22:00,61.6,55.4,29.70,SSW,192,0.0,5.0,80,0.00,,---,0.00,VWS V14.01,2013-04-15 18:22:00,
2013-04-15 13:27:00,62.3,55.4,29.70,SSW,199,0.0,5.0,78,0.00,,---,0.00,VWS V14.01,2013-04-15 18:27:00,
2013-04-15 13:28:00,62.3,55.4,29.70,ESE,103,1.0,9.0,78,0.00,,---,0.00,VWS V14.01,2013-04-15 18:28:00,
2013-04-15 13:29:00,62.4,55.5,29.70,SSW,210,5.0,6.0,78,0.00,,---,0.00,VWS V14.01,2013-04-15 18:29:00,
2013-04-15 13:30:00,62.4,55.1,29.70,South,186,4.0,8.0,77,0.00,,---,0.00,VWS V14.01,2013-04-15 18:30:00,
2013-04-15 13:31:00,62.6,55.7,29.70,South,185,2.0,4.0,78,0.00,,---,0.00,VWS V14.01,2013-04-15 18:31:00,
2013-04-15 13:34:00,62.7,55.4,29.70,South,184,1.0,5.0,77,0.00,,---,0.00,VWS V14.01,2013-04-15 18:34:00,
2013-04-15 13:35:00,62.7,55.4,29.70,SE,134,4.0,5.0,77,0.00,,---,0.00,VWS V14.01,2013-04-15 18:35:00,
2013-04-15 13:36:00,62.7,55.4,29.70,SSE,156,0.0,3.0,77,0.00,,---,0.00,VWS V14.01,2013-04-15 18:36:00,
2013-04-15 13:40:00,62.6,55.3,29.70,SW,233,2.0,6.0,77,0.00,,---,0.00,VWS V14.01,2013-04-15 18:40:00,
2013-04-15 13:41:00,62.6,55.3,29.70,WNW,288,2.0,10.0,77,0.00,,---,0.00,VWS V14.01,2013-04-15 18:41:00,
2013-04-15 13:42:00,62.6,55.3,29.70,East,93,1.0,6.0,77,0.00,,---,0.00,VWS V14.01,2013-04-15 18:42:00,
2013-04-15 13:44:00,62.9,55.6,29.69,WSW,250,10.0,10.0,77,0.00,,---,0.00,VWS V14.01,2013-04-15 18:44:00,
2013-04-15 13:46:00,63.1,55.8,29.69,SW,227,0.0,3.0,77,0.00,,---,0.00,VWS V14.01,2013-04-15 18:46:00,
2013-04-15 13:47:00,63.4,56.1,29.69,SSE,155,0.0,1.0,77,0.00,,---,0.00,VWS V14.01,2013-04-15 18:47:00,
2013-04-15 13:48:00,63.5,56.2,29.69,West,267,3.0,3.0,77,0.00,,---,0.00,VWS V14.01,2013-04-15 18:48:00,
2013-04-15 13:49:00,63.9,56.6,29.69,ESE,118,4.0,4.0,77,0.00,,---,0.00,VWS V14.01,2013-04-15 18:49:00,
2013-04-15 13:53:00,64.3,56.2,29.69,WSW,255,1.0,7.0,75,0.00,,---,0.00,VWS V14.01,2013-04-15 18:53:00,
2013-04-15 13:54:00,64.5,56.4,29.69,SW,216,2.0,4.0,75,0.00,,---,0.00,VWS V14.01,2013-04-15 18:54:00,
2013-04-15 13:56:00,64.7,56.2,29.69,WSW,255,2.0,6.0,74,0.00,,---,0.00,VWS V14.01,2013-04-15 18:56:00,
2013-04-15 13:59:00,64.7,55.9,29.70,South,185,2.0,7.0,73,0.00,,---,0.00,VWS V14.01,2013-04-15 18:59:00,
2013-04-15 14:00:00,64.7,55.9,29.70,ENE,60,3.0,3.0,73,0.00,,---,0.00,VWS V14.01,2013-04-15 19:00:00,
2013-04-15 14:02:00,64.7,56.2,29.70,South,174,2.0,3.0,74,0.00,,---,0.00,VWS V14.01,2013-04-15 19:02:00,
2013-04-15 14:05:00,64.8,56.0,29.70,South,169,12.0,12.0,73,0.00,,---,0.00,VWS V14.01,2013-04-15 19:05:00,
2013-04-15 14:06:00,64.8,56.0,29.70,SSW,197,3.0,3.0,73,0.00,,---,0.00,VWS V14.01,2013-04-15 19:06:00,
2013-04-15 14:08:00,64.8,56.0,29.70,ESE,122,3.0,5.0,73,0.00,,---,0.00,VWS V14.01,2013-04-15 19:08:00,
2013-04-15 14:10:00,64.8,56.0,29.70,SSE,160,1.0,1.0,73,0.00,,---,0.00,VWS V14.01,2013-04-15 19:10:00,
2013-04-15 14:12:00,65.0,56.2,29.70,SW,236,3.0,9.0,73,0.00,,---,0.00,VWS V14.01,2013-04-15 19:12:00,
2013-04-15 14:13:00,65.0,56.2,29.70,SW,214,3.0,4.0,73,0.00,,---,0.00,VWS V14.01,2013-04-15 19:13:00,
2013-04-15 14:14:00,65.0,56.2,29.70,WSW,239,2.0,6.0,73,0.00,,---,0.00,VWS V14.01,2013-04-15 19:14:00,
2013-04-15 14:17:00,65.3,56.4,29.70,SSW,210,5.0,12.0,73,0.00,,---,0.00,VWS V14.01,2013-04-15 19:17:00,
2013-04-15 14:18:00,65.3,56.0,29.70,WSW,254,2.0,5.0,72,0.00,,---,0.00,VWS V14.01,2013-04-15 19:18:00,
2013-04-15 14:19:00,65.3,56.0,29.70,WSW,251,3.0,11.0,72,0.00,,---,0.00,VWS V14.01,2013-04-15 19:19:00,
2013-04-15 14:20:00,65.3,56.0,29.70,SSE,153,4.0,4.0,72,0.00,,---,0.00,VWS V14.01,2013-04-15 19:20:00,
2013-04-15 14:21:00,65.3,56.0,29.70,ESE,107,1.0,4.0,72,0.00,,---,0.00,VWS V14.01,2013-04-15 19:21:00,
2013-04-15 14:24:00,65.2,56.0,29.70,SE,136,1.0,7.0,72,0.00,,---,0.00,VWS V14.01,2013-04-15 19:24:00,
2013-04-15 14:25:00,65.0,55.8,29.70,WSW,250,4.0,6.0,72,0.00,,---,0.00,VWS V14.01,2013-04-15 19:25:00,
2013-04-15 14:27:00,64.8,55.6,29.70,West,277,5.0,5.0,72,0.00,,---,0.00,VWS V14.01,2013-04-15 19:27:00,
2013-04-15 14:30:00,64.5,55.7,29.70,WNW,285,2.0,7.0,73,0.00,,---,0.00,VWS V14.01,2013-04-15 19:30:00,
2013-04-15 14:32:00,64.5,55.7,29.70,SE,136,3.0,3.0,73,0.00,,---,0.00,VWS V14.01,2013-04-15 19:32:00,
2013-04-15 14:35:00,64.3,55.5,29.70,West,279,5.0,14.0,73,0.00,,---,0.00,VWS V14.01,2013-04-15 19:35:00,
2013-04-15 14:37:00,64.2,55.4,29.70,WSW,254,0.0,6.0,73,0.00,,---,0.00,VWS V14.01,2013-04-15 19:37:00,
2013-04-15 14:39:00,64.3,55.8,29.70,SE,124,7.0,7.0,74,0.00,,---,0.00,VWS V14.01,2013-04-15 19:39:00,
2013-04-15 14:40:00,64.2,55.4,29.70,West,274,3.0,10.0,73,0.00,,---,0.00,VWS V14.01,2013-04-15 19:40:00,
2013-04-15 14:41:00,64.2,55.4,29.70,WSW,241,6.0,10.0,73,0.00,,---,0.00,VWS V14.01,2013-04-15 19:41:00,
2013-04-15 14:42:00,64.2,55.4,29.70,SSW,196,11.0,11.0,73,0.00,,---,0.00,VWS V14.01,2013-04-15 19:42:00,
2013-04-15 14:45:00,64.0,54.8,29.71,NNW,332,2.0,8.0,72,0.00,,---,0.00,VWS V14.01,2013-04-15 19:45:00,
2013-04-15 14:47:00,64.2,55.8,29.71,SSE,156,3.0,5.0,74,0.00,,---,0.00,VWS V14.01,2013-04-15 19:47:00,
2013-04-15 14:48:00,64.2,55.4,29.71,South,190,6.0,7.0,73,0.00,,---,0.00,VWS V14.01,2013-04-15 19:48:00,
2013-04-15 14:50:00,64.2,55.4,29.71,West,273,8.0,8.0,73,0.00,,---,0.00,VWS V14.01,2013-04-15 19:50:00,
2013-04-15 14:54:00,64.0,55.2,29.71,South,176,4.0,9.0,73,0.00,,---,0.00,VWS V14.01,2013-04-15 19:54:00,
2013-04-15 14:55:00,64.0,55.2,29.71,SSW,207,0.0,5.0,73,0.00,,---,0.00,VWS V14.01,2013-04-15 19:55:00,
2013-04-15 14:57:00,63.9,55.1,29.71,SSW,207,6.0,7.0,73,0.00,,---,0.00,VWS V14.01,2013-04-15 19:57:00,
2013-04-15 14:59:00,63.9,55.5,29.72,SW,228,10.0,10.0,74,0.00,,---,0.00,VWS V14.01,2013-04-15 19:59:00,
2013-04-15 15:01:00,63.7,55.3,29.72,SW,229,10.0,10.0,74,0.00,,---,0.00,VWS V14.01,2013-04-15 20:01:00,
2013-04-15 15:02:00,63.5,55.1,29.72,WSW,242,4.0,13.0,74,0.00,,---,0.00,VWS V14.01,2013-04-15 20:02:00,
2013-04-15 15:03:00,63.5,55.1,29.72,SW,230,7.0,7.0,74,0.00,,---,0.00,VWS V14.01,2013-04-15 20:03:00,
2013-04-15 15:04:00,63.5,55.4,29.72,South,189,4.0,10.0,75,0.00,,---,0.00,VWS V14.01,2013-04-15 20:04:00,
2013-04-15 15:08:00,63.2,55.5,29.72,WSW,239,6.0,6.0,76,0.00,,---,0.00,VWS V14.01,2013-04-15 20:08:00,
2013-04-15 15:09:00,63.1,55.4,29.72,WSW,252,5.0,10.0,76,0.00,,---,0.00,VWS V14.01,2013-04-15 20:09:00,
2013-04-15 15:10:00,63.1,55.4,29.72,SW,234,5.0,7.0,76,0.00,,---,0.00,VWS V14.01,2013-04-15 20:10:00,
2013-04-15 15:14:00,62.7,56.1,29.73,ESE,121,4.0,4.0,79,0.00,,---,0.00,VWS V14.01,2013-04-15 20:14:00,
2013-04-15 15:15:00,62.7,56.1,29.73,SSW,203,2.0,4.0,79,0.00,,---,0.00,VWS V14.01,2013-04-15 20:15:00,
2013-04-15 15:17:00,62.6,56.0,29.73,South,186,3.0,9.0,79,0.00,,---,0.00,VWS V14.01,2013-04-15 20:17:00,
2013-04-15 15:19:00,62.4,55.8,29.73,WSW,249,5.0,7.0,79,0.00,,---,0.00,VWS V14.01,2013-04-15 20:19:00,
2013-04-15 15:20:00,62.4,55.8,29.73,South,179,3.0,8.0,79,0.00,,---,0.00,VWS V14.01,2013-04-15 20:20:00,
2013-04-15 15:22:00,62.3,56.1,29.73,SW,216,9.0,9.0,80,0.00,,---,0.00,VWS V14.01,2013-04-15 20:22:00,
2013-04-15 15:24:00,62.1,55.9,29.73,South,171,4.0,6.0,80,0.00,,---,0.00,VWS V14.01,2013-04-15 20:24:00,
2013-04-15 15:25:00,62.1,56.2,29.73,SW,223,4.0,7.0,81,0.00,,---,0.00,VWS V14.01,2013-04-15 20:25:00,
2013-04-15 15:26:00,62.1,56.2,29.73,South,189,1.0,7.0,81,0.00,,---,0.00,VWS V14.01,2013-04-15 20:26:00,
2013-04-15 15:27:00,62.1,56.5,29.73,WNW,283,2.0,3.0,82,0.00,,---,0.00,VWS V14.01,2013-04-15 20:27:00,
2013-04-15 15:30:00,62.0,56.5,29.73,West,274,1.0,3.0,82,0.00,,---,0.00,VWS V14.01,2013-04-15 20:30:00,
2013-04-15 15:32:00,62.0,56.8,29.73,SW,235,2.0,2.0,83,0.00,,---,0.00,VWS V14.01,2013-04-15 20:32:00,
2013-04-15 15:33:00,61.8,56.6,29.73,SW,236,1.0,2.0,83,0.00,,---,0.00,VWS V14.01,2013-04-15 20:33:00,
2013-04-15 15:34:00,61.8,56.6,29.73,SW,217,2.0,5.0,83,0.00,,---,0.00,VWS V14.01,2013-04-15 20:34:00,
2013-04-15 15:36:00,61.8,56.6,29.73,WSW,243,2.0,6.0,83,0.00,,---,0.00,VWS V14.01,2013-04-15 20:36:00,
2013-04-15 15:37:00,61.8,56.6,29.73,WSW,238,0.0,1.0,83,0.00,,---,0.00,VWS V14.01,2013-04-15 20:37:00,
2013-04-15 15:38:00,61.8,56.6,29.73,West,264,2.0,4.0,83,0.00,,---,0.00,VWS V14.01,2013-04-15 20:38:00,
2013-04-15 15:39:00,61.8,56.6,29.73,SSW,207,3.0,5.0,83,0.00,,---,0.00,VWS V14.01,2013-04-15 20:39:00,
2013-04-15 15:42:00,61.8,56.6,29.73,WNW,282,2.0,3.0,83,0.00,,---,0.00,VWS V14.01,2013-04-15 20:42:00,
2013-04-15 15:43:00,61.8,56.6,29.73,WSW,253,4.0,4.0,83,0.00,,---,0.00,VWS V14.01,2013-04-15 20:43:00,
2013-04-15 15:44:00,61.8,56.6,29.73,SW,224,2.0,5.0,83,0.00,,---,0.00,VWS V14.01,2013-04-15 20:44:00,
2013-04-15 15:47:00,61.8,56.6,29.73,WSW,245,4.0,7.0,83,0.00,,---,0.00,VWS V14.01,2013-04-15 20:47:00,
2013-04-15 15:50:00,61.8,56.2,29.73,South,169,4.0,5.0,82,0.00,,---,0.00,VWS V14.01,2013-04-15 20:50:00,
2013-04-15 15:52:00,61.8,56.2,29.73,West,259,1.0,2.0,82,0.00,,---,0.00,VWS V14.01,2013-04-15 20:52:00,
2013-04-15 15:54:00,61.8,56.2,29.73,SSE,162,9.0,14.0,82,0.00,,---,0.00,VWS V14.01,2013-04-15 20:54:00,
2013-04-15 15:55:00,61.8,56.2,29.73,West,267,4.0,9.0,82,0.00,,---,0.00,VWS V14.01,2013-04-15 20:55:00,
2013-04-15 15:57:00,61.6,56.1,29.73,West,259,3.0,6.0,82,0.00,,---,0.00,VWS V14.01,2013-04-15 20:57:00,
2013-04-15 16:00:00,61.6,56.1,29.73,WNW,297,3.0,4.0,82,0.00,,---,0.00,VWS V14.01,2013-04-15 21:00:00,
2013-04-15 16:01:00,61.6,56.1,29.73,WSW,245,3.0,6.0,82,0.00,,---,0.00,VWS V14.01,2013-04-15 21:01:00,
2013-04-15 16:02:00,61.6,56.1,29.73,SW,232,4.0,5.0,82,0.00,,---,0.00,VWS V14.01,2013-04-15 21:02:00,
2013-04-15 16:04:00,61.6,56.1,29.73,SW,232,0.0,4.0,82,0.00,,---,0.00,VWS V14.01,2013-04-15 21:04:00,
2013-04-15 16:05:00,61.6,56.1,29.73,SSW,197,2.0,2.0,82,0.00,,---,0.00,VWS V14.01,2013-04-15 21:05:00,
2013-04-15 16:07:00,61.6,56.1,29.73,WNW,284,5.0,6.0,82,0.00,,---,0.00,VWS V14.01,2013-04-15 21:07:00,
2013-04-15 16:08:00,61.6,56.4,29.73,SW,219,4.0,4.0,83,0.00,,---,0.00,VWS V14.01,2013-04-15 21:08:00,
2013-04-15 16:10:00,61.5,56.3,29.73,SW,231,0.0,1.0,83,0.00,,---,0.00,VWS V14.01,2013-04-15 21:10:00,
2013-04-15 16:11:00,61.5,56.3,29.73,SW,214,3.0,4.0,83,0.00,,---,0.00,VWS V14.01,2013-04-15 21:11:00,
2013-04-15 16:13:00,61.5,56.3,29.73,West,271,2.0,4.0,83,0.00,,---,0.00,VWS V14.01,2013-04-15 21:13:00,
2013-04-15 16:14:00,61.5,56.3,29.74,WSW,243,0.0,4.0,83,0.00,,---,0.00,VWS V14.01,2013-04-15 21:14:00,
2013-04-15 16:15:00,61.5,56.3,29.74,SW,223,2.0,5.0,83,0.00,,---,0.00,VWS V14.01,2013-04-15 21:15:00,
2013-04-15 16:17:00,61.3,56.4,29.74,SW,235,0.0,1.0,84,0.00,,---,0.00,VWS V14.01,2013-04-15 21:17:00,
2013-04-15 16:19:00,61.3,56.8,29.74,West,271,0.0,0.0,85,0.00,,---,0.00,VWS V14.01,2013-04-15 21:19:00,
2013-04-15 16:20:00,61.3,56.8,29.74,West,271,0.0,0.0,85,0.00,,---,0.00,VWS V14.01,2013-04-15 21:20:00,
2013-04-15 16:22:00,61.2,57.0,29.74,WSW,251,3.0,4.0,86,0.01,,---,0.01,VWS V14.01,2013-04-15 21:22:00,
2013-04-15 16:23:00,61.2,57.0,29.74,SW,236,0.0,1.0,86,0.01,,---,0.01,VWS V14.01,2013-04-15 21:23:00,
2013-04-15 16:24:00,61.0,57.1,29.74,SW,236,1.0,1.0,87,0.01,,---,0.01,VWS V14.01,2013-04-15 21:24:00,
2013-04-15 16:25:00,61.0,57.1,29.74,SW,236,0.0,1.0,87,0.02,,---,0.02,VWS V14.01,2013-04-15 21:25:00,
2013-04-15 16:27:00,60.9,57.0,29.74,WSW,243,3.0,3.0,87,0.03,,---,0.03,VWS V14.01,2013-04-15 21:27:00,
2013-04-15 16:29:00,60.9,57.3,29.73,WSW,255,0.0,0.0,88,0.03,,---,0.03,VWS V14.01,2013-04-15 21:29:00,
2013-04-15 16:31:00,60.7,57.4,29.73,West,259,0.0,0.0,89,0.03,,---,0.03,VWS V14.01,2013-04-15 21:31:00,
2013-04-15 16:34:00,60.5,57.2,29.73,NW,326,1.0,1.0,89,0.04,,---,0.04,VWS V14.01,2013-04-15 21:34:00,
2013-04-15 16:35:00,60.5,57.6,29.73,West,264,3.0,3.0,90,0.04,,---,0.04,VWS V14.01,2013-04-15 21:35:00,
2013-04-15 16:36:00,60.4,57.5,29.73,West,264,2.0,2.0,90,0.04,,---,0.04,VWS V14.01,2013-04-15 21:36:00,
2013-04-15 16:37:00,60.4,57.5,29.73,West,264,2.0,3.0,90,0.04,,---,0.04,VWS V14.01,2013-04-15 21:37:00,
2013-04-15 16:40:00,60.2,57.6,29.73,West,264,0.0,1.0,91,0.04,,---,0.04,VWS V14.01,2013-04-15 21:40:00,
2013-04-15 16:41:00,60.1,57.5,29.73,West,264,1.0,1.0,91,0.04,,---,0.04,VWS V14.01,2013-04-15 21:41:00,
2013-04-15 16:43:00,60.1,57.5,29.73,West,264,0.0,1.0,91,0.04,,---,0.04,VWS V14.01,2013-04-15 21:43:00,
2013-04-15 16:44:00,59.9,57.3,29.74,West,264,0.0,1.0,91,0.04,,---,0.04,VWS V14.01,2013-04-15 21:44:00,
2013-04-15 16:45:00,59.9,57.6,29.74,West,264,1.0,1.0,92,0.04,,---,0.04,VWS V14.01,2013-04-15 21:45:00,
2013-04-15 16:48:00,59.8,57.5,29.74,West,264,1.0,3.0,92,0.04,,---,0.04,VWS V14.01,2013-04-15 21:48:00,
2013-04-15 16:49:00,59.8,57.5,29.74,West,264,2.0,2.0,92,0.04,,---,0.04,VWS V14.01,2013-04-15 21:49:00,
2013-04-15 16:50:00,59.6,57.3,29.74,West,260,0.0,3.0,92,0.04,,---,0.04,VWS V14.01,2013-04-15 21:50:00,
2013-04-15 16:52:00,59.6,57.3,29.74,West,260,0.0,1.0,92,0.05,,---,0.05,VWS V14.01,2013-04-15 21:52:00,
2013-04-15 16:54:00,59.5,57.2,29.74,West,260,0.0,0.0,92,0.05,,---,0.05,VWS V14.01,2013-04-15 21:54:00,
2013-04-15 16:57:00,59.5,57.5,29.74,West,260,0.0,0.0,93,0.05,,---,0.05,VWS V14.01,2013-04-15 21:57:00,
2013-04-15 16:58:00,59.3,57.3,29.74,West,260,0.0,0.0,93,0.05,,---,0.05,VWS V14.01,2013-04-15 21:58:00,
2013-04-15 16:59:00,59.3,57.3,29.72,West,260,2.0,2.0,93,0.05,,---,0.05,VWS V14.01,2013-04-15 21:59:00,
2013-04-15 17:00:00,59.3,57.3,29.72,West,260,0.0,0.0,93,0.05,,---,0.05,VWS V14.01,2013-04-15 22:00:00,
2013-04-15 17:04:00,59.3,57.3,29.72,West,260,0.0,0.0,93,0.06,,---,0.06,VWS V14.01,2013-04-15 22:04:00,
2013-04-15 17:05:00,59.3,57.3,29.72,West,260,1.0,2.0,93,0.06,,---,0.06,VWS V14.01,2013-04-15 22:05:00,
2013-04-15 17:06:00,59.2,57.2,29.72,West,260,1.0,1.0,93,0.06,,---,0.06,VWS V14.01,2013-04-15 22:06:00,
2013-04-15 17:10:00,59.2,57.5,29.72,West,260,0.0,0.0,94,0.07,,---,0.07,VWS V14.01,2013-04-15 22:10:00,
2013-04-15 17:11:00,59.2,57.5,29.72,West,260,0.0,1.0,94,0.07,,---,0.07,VWS V14.01,2013-04-15 22:11:00,
2013-04-15 17:12:00,59.0,57.3,29.72,West,260,0.0,0.0,94,0.07,,---,0.07,VWS V14.01,2013-04-15 22:12:00,
2013-04-15 17:15:00,59.0,57.3,29.74,West,260,0.0,0.0,94,0.09,,---,0.09,VWS V14.01,2013-04-15 22:15:00,
2013-04-15 17:16:00,59.0,57.3,29.74,West,260,0.0,0.0,94,0.09,,---,0.09,VWS V14.01,2013-04-15 22:16:00,
2013-04-15 17:18:00,58.9,57.2,29.74,West,260,0.0,0.0,94,0.10,,---,0.10,VWS V14.01,2013-04-15 22:18:00,
2013-04-15 17:20:00,58.9,57.2,29.74,West,260,0.0,0.0,94,0.11,,---,0.11,VWS V14.01,2013-04-15 22:20:00,
2013-04-15 17:21:00,58.9,57.5,29.74,WNW,299,2.0,2.0,95,0.11,,---,0.11,VWS V14.01,2013-04-15 22:21:00,
2013-04-15 17:25:00,58.7,57.3,29.74,West,262,0.0,2.0,95,0.11,,---,0.13,VWS V14.01,2013-04-15 22:25:00,
2013-04-15 17:26:00,58.7,57.3,29.74,West,262,0.0,2.0,95,0.11,,---,0.13,VWS V14.01,2013-04-15 22:26:00,
2013-04-15 17:27:00,58.7,57.3,29.74,West,262,0.0,0.0,95,0.12,,---,0.14,VWS V14.01,2013-04-15 22:27:00,
2013-04-15 17:28:00,58.7,57.3,29.74,West,262,2.0,3.0,95,0.11,,---,0.14,VWS V14.01,2013-04-15 22:28:00,
2013-04-15 17:31:00,58.4,57.0,29.74,West,259,2.0,4.0,95,0.13,,---,0.16,VWS V14.01,2013-04-15 22:31:00,
2013-04-15 17:32:00,58.4,57.0,29.74,North,354,0.0,4.0,95,0.14,,---,0.17,VWS V14.01,2013-04-15 22:32:00,
2013-04-15 17:33:00,58.3,56.9,29.74,SSW,204,1.0,2.0,95,0.15,,---,0.18,VWS V14.01,2013-04-15 22:33:00,
2013-04-15 17:34:00,58.3,56.9,29.74,SSW,204,0.0,0.0,95,0.15,,---,0.19,VWS V14.01,2013-04-15 22:34:00,
2013-04-15 17:37:00,58.1,56.7,29.74,West,274,0.0,3.0,95,0.16,,---,0.20,VWS V14.01,2013-04-15 22:37:00,
2013-04-15 17:38:00,58.0,56.6,29.74,West,274,0.0,0.0,95,0.16,,---,0.20,VWS V14.01,2013-04-15 22:38:00,
2013-04-15 17:39:00,58.0,56.6,29.74,West,274,0.0,0.0,95,0.16,,---,0.20,VWS V14.01,2013-04-15 22:39:00,
2013-04-15 17:42:00,57.8,56.7,29.74,West,270,3.0,3.0,96,0.17,,---,0.21,VWS V14.01,2013-04-15 22:42:00,
2013-04-15 17:43:00,57.8,56.7,29.74,WSW,255,0.0,3.0,96,0.17,,---,0.21,VWS V14.01,2013-04-15 22:43:00,
2013-04-15 17:44:00,57.8,56.7,29.76,WSW,245,5.0,5.0,96,0.17,,---,0.21,VWS V14.01,2013-04-15 22:44:00,
2013-04-15 17:45:00,57.8,56.7,29.76,West,259,0.0,5.0,96,0.18,,---,0.22,VWS V14.01,2013-04-15 22:45:00,
2013-04-15 17:47:00,57.8,56.7,29.76,WNW,282,2.0,4.0,96,0.18,,---,0.22,VWS V14.01,2013-04-15 22:47:00,
2013-04-15 17:48:00,57.8,56.7,29.76,WNW,282,0.0,4.0,96,0.19,,---,0.23,VWS V14.01,2013-04-15 22:48:00,
2013-04-15 17:49:00,57.6,56.5,29.76,West,269,1.0,2.0,96,0.19,,---,0.23,VWS V14.01,2013-04-15 22:49:00,
2013-04-15 17:53:00,57.6,56.5,29.76,West,269,0.0,0.0,96,0.21,,---,0.26,VWS V14.01,2013-04-15 22:53:00,
2013-04-15 17:54:00,57.6,56.5,29.76,West,269,0.0,1.0,96,0.21,,---,0.26,VWS V14.01,2013-04-15 22:54:00,
2013-04-15 17:55:00,57.5,56.4,29.76,WNW,282,0.0,2.0,96,0.22,,---,0.27,VWS V14.01,2013-04-15 22:55:00,
2013-04-15 17:56:00,57.5,56.4,29.76,WNW,282,0.0,2.0,96,0.22,,---,0.27,VWS V14.01,2013-04-15 22:56:00,
2013-04-15 17:58:00,57.5,56.4,29.76,WNW,282,1.0,1.0,96,0.22,,---,0.27,VWS V14.01,2013-04-15 22:58:00,
2013-04-15 17:59:00,57.5,56.4,29.75,WNW,282,2.0,2.0,96,0.23,,---,0.28,VWS V14.01,2013-04-15 22:59:00,
2013-04-15 18:02:00,57.5,56.4,29.75,WNW,302,2.0,3.0,96,0.23,,---,0.28,VWS V14.01,2013-04-15 23:02:00,
2013-04-15 18:03:00,57.5,56.4,29.75,NNW,333,3.0,4.0,96,0.23,,---,0.28,VWS V14.01,2013-04-15 23:03:00,
2013-04-15 18:05:00,57.3,56.5,29.75,SW,230,0.0,0.0,97,0.23,,---,0.29,VWS V14.01,2013-04-15 23:05:00,
2013-04-15 18:07:00,57.3,56.5,29.75,WSW,256,2.0,3.0,97,0.25,,---,0.31,VWS V14.01,2013-04-15 23:07:00,
2013-04-15 18:08:00,57.3,56.5,29.75,West,264,1.0,3.0,97,0.25,,---,0.31,VWS V14.01,2013-04-15 23:08:00,
2013-04-15 18:10:00,57.2,56.4,29.75,West,265,1.0,2.0,97,0.26,,---,0.32,VWS V14.01,2013-04-15 23:10:00,
2013-04-15 18:11:00,57.2,56.4,29.75,West,264,1.0,2.0,97,0.26,,---,0.33,VWS V14.01,2013-04-15 23:11:00,
2013-04-15 18:12:00,57.2,56.4,29.75,West,264,2.0,3.0,97,0.26,,---,0.33,VWS V14.01,2013-04-15 23:12:00,
2013-04-15 18:13:00,57.0,56.2,29.75,West,262,0.0,2.0,97,0.26,,---,0.33,VWS V14.01,2013-04-15 23:13:00,
2013-04-15 18:14:00,57.0,56.2,29.75,West,262,0.0,1.0,97,0.26,,---,0.34,VWS V14.01,2013-04-15 23:14:00,
2013-04-15 18:15:00,57.0,56.2,29.75,WSW,258,2.0,2.0,97,0.26,,---,0.34,VWS V14.01,2013-04-15 23:15:00,
2013-04-15 18:17:00,57.0,56.2,29.75,West,268,3.0,3.0,97,0.24,,---,0.34,VWS V14.01,2013-04-15 23:17:00,
2013-04-15 18:18:00,56.9,56.1,29.75,West,261,2.0,3.0,97,0.24,,---,0.34,VWS V14.01,2013-04-15 23:18:00,
2013-04-15 18:19:00,56.9,56.1,29.75,West,261,2.0,3.0,97,0.24,,---,0.34,VWS V14.01,2013-04-15 23:19:00,
2013-04-15 18:20:00,56.9,56.1,29.75,West,263,0.0,3.0,97,0.24,,---,0.35,VWS V14.01,2013-04-15 23:20:00,
2013-04-15 18:22:00,56.7,55.9,29.75,West,267,0.0,4.0,97,0.24,,---,0.36,VWS V14.01,2013-04-15 23:22:00,
2013-04-15 18:24:00,56.7,55.9,29.75,West,281,2.0,4.0,97,0.25,,---,0.37,VWS V14.01,2013-04-15 23:24:00,
2013-04-15 18:25:00,56.7,55.9,29.75,West,262,2.0,2.0,97,0.26,,---,0.38,VWS V14.01,2013-04-15 23:25:00,
2013-04-15 18:26:00,56.6,55.8,29.75,West,270,0.0,3.0,97,0.25,,---,0.38,VWS V14.01,2013-04-15 23:26:00,
2013-04-15 18:27:00,56.6,55.8,29.75,West,270,1.0,1.0,97,0.25,,---,0.39,VWS V14.01,2013-04-15 23:27:00,
2013-04-15 18:29:00,56.5,55.7,29.76,WSW,252,0.0,2.0,97,0.27,,---,0.41,VWS V14.01,2013-04-15 23:29:00,
2013-04-15 18:30:00,56.5,55.7,29.76,WNW,285,2.0,3.0,97,0.26,,---,0.41,VWS V14.01,2013-04-15 23:30:00,
2013-04-15 18:31:00,56.5,55.7,29.76,WNW,285,0.0,2.0,97,0.26,,---,0.42,VWS V14.01,2013-04-15 23:31:00,
2013-04-15 18:32:00,56.5,55.7,29.76,WNW,285,0.0,1.0,97,0.26,,---,0.42,VWS V14.01,2013-04-15 23:32:00,
2013-04-15 18:34:00,56.5,55.7,29.76,WNW,285,0.0,0.0,97,0.25,,---,0.43,VWS V14.01,2013-04-15 23:34:00,
2013-04-15 18:35:00,56.3,55.5,29.76,WNW,285,0.0,0.0,97,0.24,,---,0.43,VWS V14.01,2013-04-15 23:35:00,
2013-04-15 18:36:00,56.3,55.5,29.76,WNW,285,0.0,1.0,97,0.25,,---,0.44,VWS V14.01,2013-04-15 23:36:00,
2013-04-15 18:37:00,56.3,55.5,29.76,WNW,285,0.0,0.0,97,0.24,,---,0.44,VWS V14.01,2013-04-15 23:37:00,
2013-04-15 18:40:00,56.3,55.5,29.76,WNW,285,0.0,2.0,97,0.25,,---,0.45,VWS V14.01,2013-04-15 23:40:00,
2013-04-15 18:41:00,56.2,55.4,29.76,WNW,285,0.0,0.0,97,0.25,,---,0.45,VWS V14.01,2013-04-15 23:41:00,
2013-04-15 18:42:00,56.2,55.4,29.76,WNW,285,1.0,1.0,97,0.24,,---,0.45,VWS V14.01,2013-04-15 23:42:00,
2013-04-15 18:44:00,56.2,55.4,29.76,WNW,297,2.0,2.0,97,0.25,,---,0.46,VWS V14.01,2013-04-15 23:44:00,
2013-04-15 18:45:00,56.2,55.4,29.76,NNW,335,1.0,3.0,97,0.24,,---,0.46,VWS V14.01,2013-04-15 23:45:00,
2013-04-15 18:47:00,56.2,55.7,29.76,NW,319,2.0,3.0,98,0.25,,---,0.47,VWS V14.01,2013-04-15 23:47:00,
2013-04-15 18:50:00,56.2,55.7,29.76,NNW,347,2.0,4.0,98,0.25,,---,0.48,VWS V14.01,2013-04-15 23:50:00,
2013-04-15 18:52:00,56.2,55.7,29.76,NNW,338,0.0,0.0,98,0.26,,---,0.50,VWS V14.01,2013-04-15 23:52:00,
2013-04-15 18:55:00,56.0,55.5,29.76,NNW,338,0.0,2.0,98,0.24,,---,0.50,VWS V14.01,2013-04-15 23:55:00,
2013-04-15 18:56:00,56.0,55.5,29.76,NNW,338,0.0,0.0,98,0.23,,---,0.50,VWS V14.01,2013-04-15 23:56:00,
2013-04-15 18:57:00,56.0,55.5,29.76,NNW,338,0.0,0.0,98,0.23,,---,0.50,VWS V14.01,2013-04-15 23:57:00,
2013-04-15 18:58:00,56.0,55.5,29.76,NNW,338,0.0,0.0,98,0.23,,---,0.50,VWS V14.01,2013-04-15 23:58:00,
2013-04-15 19:01:00,56.0,55.5,29.75,NNW,338,0.0,0.0,98,0.23,,---,0.51,VWS V14.01,2013-04-16 00:01:00,
2013-04-15 19:02:00,56.0,55.5,29.75,NNW,338,0.0,0.0,98,0.23,,---,0.51,VWS V14.01,2013-04-16 00:02:00,
2013-04-15 19:04:00,56.0,55.5,29.75,NNW,338,0.0,0.0,98,0.23,,---,0.51,VWS V14.01,2013-04-16 00:04:00,
2013-04-15 19:07:00,55.9,55.3,29.75,NNW,338,0.0,0.0,98,0.20,,---,0.51,VWS V14.01,2013-04-16 00:07:00,
2013-04-15 19:08:00,55.9,55.3,29.75,NNW,338,0.0,0.0,98,0.20,,---,0.51,VWS V14.01,2013-04-16 00:08:00,
2013-04-15 19:09:00,55.9,55.3,29.75,NNW,338,0.0,0.0,98,0.19,,---,0.51,VWS V14.01,2013-04-16 00:09:00,
2013-04-15 19:10:00,55.9,55.3,29.75,NNW,338,0.0,0.0,98,0.19,,---,0.51,VWS V14.01,2013-04-16 00:10:00,
2013-04-15 19:12:00,55.9,55.3,29.75,NNW,338,0.0,0.0,98,0.18,,---,0.51,VWS V14.01,2013-04-16 00:12:00,
2013-04-15 19:13:00,55.9,55.3,29.74,NNW,338,0.0,0.0,98,0.18,,---,0.51,VWS V14.01,2013-04-16 00:13:00,
2013-04-15 19:15:00,55.7,55.2,29.74,NNW,338,0.0,0.0,98,0.17,,---,0.51,VWS V14.01,2013-04-16 00:15:00,
2013-04-15 19:17:00,55.7,55.2,29.74,NNW,338,0.0,0.0,98,0.17,,---,0.51,VWS V14.01,2013-04-16 00:17:00,
2013-04-15 19:18:00,55.7,55.2,29.74,NNW,338,0.0,0.0,98,0.17,,---,0.51,VWS V14.01,2013-04-16 00:18:00,
2013-04-15 19:19:00,55.7,55.2,29.74,NNW,338,0.0,0.0,98,0.17,,---,0.51,VWS V14.01,2013-04-16 00:19:00,
2013-04-15 19:21:00,55.7,55.2,29.74,NNW,338,0.0,0.0,98,0.16,,---,0.51,VWS V14.01,2013-04-16 00:21:00,
2013-04-15 19:22:00,55.7,55.2,29.74,NNW,338,0.0,0.0,98,0.16,,---,0.51,VWS V14.01,2013-04-16 00:22:00,
2013-04-15 19:23:00,55.7,55.2,29.74,NNW,338,0.0,0.0,98,0.15,,---,0.51,VWS V14.01,2013-04-16 00:23:00,
2013-04-15 19:24:00,55.7,55.2,29.74,NNW,338,0.0,0.0,98,0.15,,---,0.51,VWS V14.01,2013-04-16 00:24:00,
2013-04-15 19:27:00,55.6,55.0,29.74,NNW,338,0.0,0.0,98,0.12,,---,0.51,VWS V14.01,2013-04-16 00:27:00,
2013-04-15 19:29:00,55.6,55.0,29.74,NNW,338,0.0,0.0,98,0.10,,---,0.51,VWS V14.01,2013-04-16 00:29:00,
2013-04-15 19:30:00,55.6,55.0,29.74,NNW,338,0.0,0.0,98,0.10,,---,0.51,VWS V14.01,2013-04-16 00:30:00,
2013-04-15 19:32:00,55.6,55.0,29.74,NNW,338,0.0,0.0,98,0.10,,---,0.52,VWS V14.01,2013-04-16 00:32:00,
2013-04-15 19:35:00,55.6,55.0,29.74,NNW,338,0.0,0.0,98,0.09,,---,0.52,VWS V14.01,2013-04-16 00:35:00,
2013-04-15 19:36:00,55.6,55.0,29.74,NNW,338,0.0,0.0,98,0.08,,---,0.52,VWS V14.01,2013-04-16 00:36:00,
2013-04-15 19:37:00,55.6,55.0,29.74,NNW,338,0.0,0.0,98,0.08,,---,0.52,VWS V14.01,2013-04-16 00:37:00,
2013-04-15 19:38:00,55.6,55.0,29.74,NNW,338,0.0,0.0,98,0.08,,---,0.52,VWS V14.01,2013-04-16 00:38:00,
2013-04-15 19:39:00,55.6,55.0,29.74,NNW,338,0.0,0.0,98,0.08,,---,0.52,VWS V14.01,2013-04-16 00:39:00,
2013-04-15 19:41:00,55.6,55.0,29.74,NNW,338,0.0,0.0,98,0.07,,---,0.52,VWS V14.01,2013-04-16 00:41:00,
2013-04-15 19:43:00,55.6,55.0,29.74,NNW,338,0.0,0.0,98,0.07,,---,0.52,VWS V14.01,2013-04-16 00:43:00,
2013-04-15 19:44:00,55.6,55.0,29.75,NNW,338,0.0,0.0,98,0.07,,---,0.53,VWS V14.01,2013-04-16 00:44:00,
2013-04-15 19:45:00,55.6,55.0,29.75,NNW,338,0.0,0.0,98,0.07,,---,0.53,VWS V14.01,2013-04-16 00:45:00,
2013-04-15 19:46:00,55.6,55.0,29.75,NNW,338,0.0,0.0,98,0.07,,---,0.53,VWS V14.01,2013-04-16 00:46:00,
2013-04-15 19:50:00,55.6,55.0,29.75,NNW,338,0.0,0.0,98,0.05,,---,0.53,VWS V14.01,2013-04-16 00:50:00,
2013-04-15 19:51:00,55.6,55.0,29.75,NNW,338,0.0,0.0,98,0.06,,---,0.54,VWS V14.01,2013-04-16 00:51:00,
2013-04-15 19:52:00,55.6,55.0,29.75,NNW,338,0.0,0.0,98,0.05,,---,0.54,VWS V14.01,2013-04-16 00:52:00,
2013-04-15 19:55:00,55.6,55.0,29.75,NNW,338,1.0,1.0,98,0.04,,---,0.54,VWS V14.01,2013-04-16 00:55:00,
2013-04-15 19:56:00,55.6,55.0,29.75,NNW,338,0.0,3.0,98,0.04,,---,0.54,VWS V14.01,2013-04-16 00:56:00,
2013-04-15 19:57:00,55.6,55.0,29.75,NNW,338,0.0,0.0,98,0.04,,---,0.54,VWS V14.01,2013-04-16 00:57:00,
2013-04-15 19:58:00,55.6,55.0,29.76,NNW,338,0.0,0.0,98,0.04,,---,0.54,VWS V14.01,2013-04-16 00:58:00,
2013-04-15 19:59:00,55.4,54.8,29.76,NNW,338,0.0,0.0,98,0.04,,---,0.54,VWS V14.01,2013-04-16 00:59:00,
2013-04-15 20:00:00,55.4,54.8,29.76,NNW,338,0.0,0.0,98,0.04,,---,0.55,VWS V14.01,2013-04-16 01:00:00,
2013-04-15 20:01:00,55.4,54.8,29.76,NNW,338,2.0,2.0,98,0.04,,---,0.55,VWS V14.01,2013-04-16 01:01:00,
2013-04-15 20:04:00,55.4,54.8,29.76,NNW,338,0.0,1.0,98,0.05,,---,0.56,VWS V14.01,2013-04-16 01:04:00,
2013-04-15 20:05:00,55.4,54.8,29.76,NNW,338,0.0,0.0,98,0.05,,---,0.56,VWS V14.01,2013-04-16 01:05:00,
2013-04-15 20:06:00,55.4,55.1,29.76,NNW,338,0.0,0.0,99,0.05,,---,0.56,VWS V14.01,2013-04-16 01:06:00,
2013-04-15 20:07:00,55.4,55.1,29.76,NNW,338,0.0,0.0,99,0.05,,---,0.56,VWS V14.01,2013-04-16 01:07:00,
2013-04-15 20:09:00,55.4,55.1,29.76,NNW,338,0.0,0.0,99,0.05,,---,0.56,VWS V14.01,2013-04-16 01:09:00,
2013-04-15 20:10:00,55.4,55.1,29.76,NNW,338,2.0,2.0,99,0.06,,---,0.57,VWS V14.01,2013-04-16 01:10:00,
2013-04-15 20:11:00,55.3,55.0,29.76,NNW,338,1.0,2.0,99,0.06,,---,0.57,VWS V14.01,2013-04-16 01:11:00,
2013-04-15 20:12:00,55.3,55.0,29.76,NNW,338,2.0,3.0,99,0.06,,---,0.57,VWS V14.01,2013-04-16 01:12:00,
2013-04-15 20:13:00,55.3,54.8,29.76,NNW,340,0.0,3.0,98,0.06,,---,0.57,VWS V14.01,2013-04-16 01:13:00,
2013-04-15 20:15:00,55.1,54.5,29.76,NNW,340,0.0,0.0,98,0.07,,---,0.58,VWS V14.01,2013-04-16 01:15:00,
2013-04-15 20:16:00,55.1,54.5,29.76,NNW,340,1.0,2.0,98,0.07,,---,0.58,VWS V14.01,2013-04-16 01:16:00,
2013-04-15 20:17:00,55.1,54.5,29.76,NNW,340,2.0,2.0,98,0.07,,---,0.58,VWS V14.01,2013-04-16 01:17:00,
2013-04-15 20:18:00,55.0,54.5,29.76,NNW,338,3.0,4.0,98,0.07,,---,0.58,VWS V14.01,2013-04-16 01:18:00,
2013-04-15 20:21:00,54.1,53.0,29.76,NNW,334,2.0,4.0,96,0.07,,---,0.58,VWS V14.01,2013-04-16 01:21:00,
2013-04-15 20:22:00,53.6,52.5,29.76,North,4,3.0,5.0,96,0.07,,---,0.58,VWS V14.01,2013-04-16 01:22:00,
2013-04-15 20:23:00,53.3,52.2,29.76,NNW,347,4.0,5.0,96,0.07,,---,0.58,VWS V14.01,2013-04-16 01:23:00,
2013-04-15 20:25:00,52.0,50.9,29.76,North,1,2.0,4.0,96,0.08,,---,0.59,VWS V14.01,2013-04-16 01:25:00,
2013-04-15 20:27:00,51.3,50.2,29.76,North,353,1.0,6.0,96,0.08,,---,0.59,VWS V14.01,2013-04-16 01:27:00,
2013-04-15 20:29:00,50.5,49.1,29.79,North,8,3.0,6.0,95,0.08,,---,0.59,VWS V14.01,2013-04-16 01:29:00,
2013-04-15 20:30:00,50.1,48.7,29.79,North,0,2.0,4.0,95,0.08,,---,0.59,VWS V14.01,2013-04-16 01:30:00,
2013-04-15 20:33:00,48.9,47.8,29.79,NNE,12,5.0,6.0,96,0.09,,---,0.61,VWS V14.01,2013-04-16 01:33:00,
2013-04-15 20:34:00,48.8,47.7,29.79,North,0,3.0,6.0,96,0.09,,---,0.61,VWS V14.01,2013-04-16 01:34:00,
2013-04-15 20:35:00,48.6,47.5,29.79,NNE,23,1.0,4.0,96,0.09,,---,0.61,VWS V14.01,2013-04-16 01:35:00,
2013-04-15 20:36:00,48.3,47.2,29.79,North,0,2.0,4.0,96,0.09,,---,0.61,VWS V14.01,2013-04-16 01:36:00,
2013-04-15 20:39:00,47.9,47.1,29.79,NNW,333,2.0,3.0,97,0.09,,---,0.61,VWS V14.01,2013-04-16 01:39:00,
2013-04-15 20:40:00,47.9,47.1,29.79,NNE,21,1.0,3.0,97,0.09,,---,0.61,VWS V14.01,2013-04-16 01:40:00,
2013-04-15 20:41:00,47.7,46.9,29.79,North,358,2.0,2.0,97,0.09,,---,0.61,VWS V14.01,2013-04-16 01:41:00,
2013-04-15 20:42:00,47.7,46.9,29.79,NNW,330,0.0,3.0,97,0.09,,---,0.61,VWS V14.01,2013-04-16 01:42:00,
2013-04-15 20:44:00,47.6,46.8,29.81,NNW,348,3.0,5.0,97,0.08,,---,0.61,VWS V14.01,2013-04-16 01:44:00,
2013-04-15 20:46:00,47.4,46.6,29.81,NNE,12,4.0,6.0,97,0.08,,---,0.61,VWS V14.01,2013-04-16 01:46:00,
2013-04-15 20:47:00,47.4,46.6,29.81,NNE,15,3.0,5.0,97,0.08,,---,0.61,VWS V14.01,2013-04-16 01:47:00,
2013-04-15 20:48:00,47.3,46.5,29.81,North,358,3.0,3.0,97,0.09,,---,0.62,VWS V14.01,2013-04-16 01:48:00,
2013-04-15 20:49:00,47.3,46.5,29.81,North,2,6.0,6.0,97,0.09,,---,0.62,VWS V14.01,2013-04-16 01:49:00,
2013-04-15 20:50:00,47.1,46.3,29.81,North,0,3.0,3.0,97,0.09,,---,0.62,VWS V14.01,2013-04-16 01:50:00,
2013-04-15 20:52:00,47.0,46.2,29.81,North,358,2.0,4.0,97,0.08,,---,0.62,VWS V14.01,2013-04-16 01:52:00,
2013-04-15 20:54:00,46.8,46.0,29.81,NNW,334,4.0,6.0,97,0.09,,---,0.63,VWS V14.01,2013-04-16 01:54:00,
2013-04-15 20:55:00,46.8,46.0,29.81,NNE,14,3.0,5.0,97,0.09,,---,0.63,VWS V14.01,2013-04-16 01:55:00,
2013-04-15 20:56:00,46.7,45.9,29.81,NNW,335,3.0,4.0,97,0.09,,---,0.63,VWS V14.01,2013-04-16 01:56:00,
2013-04-15 20:58:00,46.5,45.7,29.81,North,358,1.0,3.0,97,0.09,,---,0.63,VWS V14.01,2013-04-16 01:58:00,
2013-04-15 20:59:00,46.5,45.7,29.81,NNW,345,2.0,2.0,97,0.10,,---,0.64,VWS V14.01,2013-04-16 01:59:00,
2013-04-15 21:00:00,46.5,45.7,29.81,NNW,338,6.0,6.0,97,0.09,,---,0.64,VWS V14.01,2013-04-16 02:00:00,
2013-04-15 21:02:00,46.4,45.6,29.81,NW,322,3.0,3.0,97,0.09,,---,0.64,VWS V14.01,2013-04-16 02:02:00,
2013-04-15 21:04:00,46.4,45.6,29.81,North,358,4.0,5.0,97,0.09,,---,0.64,VWS V14.01,2013-04-16 02:04:00,
2013-04-15 21:05:00,46.4,45.6,29.81,North,0,4.0,6.0,97,0.08,,---,0.64,VWS V14.01,2013-04-16 02:05:00,
2013-04-15 21:08:00,46.1,45.3,29.81,North,1,2.0,5.0,97,0.08,,---,0.64,VWS V14.01,2013-04-16 02:08:00,
2013-04-15 21:09:00,46.1,45.3,29.81,NNW,332,4.0,4.0,97,0.08,,---,0.64,VWS V14.01,2013-04-16 02:09:00,
2013-04-15 21:10:00,46.0,45.2,29.81,NW,319,4.0,4.0,97,0.08,,---,0.64,VWS V14.01,2013-04-16 02:10:00,
2013-04-15 21:13:00,45.8,45.0,29.81,North,4,1.0,5.0,97,0.08,,---,0.65,VWS V14.01,2013-04-16 02:13:00,
2013-04-15 21:14:00,45.8,45.0,29.81,North,0,3.0,5.0,97,0.08,,---,0.65,VWS V14.01,2013-04-16 02:14:00,
2013-04-15 21:15:00,45.8,45.0,29.81,North,4,0.0,3.0,97,0.08,,---,0.65,VWS V14.01,2013-04-16 02:15:00,
2013-04-15 21:16:00,45.8,45.0,29.81,ENE,62,0.0,3.0,97,0.07,,---,0.65,VWS V14.01,2013-04-16 02:16:00,
2013-04-15 21:19:00,45.7,44.9,29.81,North,1,3.0,5.0,97,0.07,,---,0.65,VWS V14.01,2013-04-16 02:19:00,
2013-04-15 21:20:00,45.7,44.9,29.81,NNE,15,1.0,4.0,97,0.07,,---,0.65,VWS V14.01,2013-04-16 02:20:00,
2013-04-15 21:22:00,45.7,44.9,29.81,North,2,2.0,3.0,97,0.07,,---,0.65,VWS V14.01,2013-04-16 02:22:00,
2013-04-15 21:23:00,45.5,44.7,29.81,NNE,13,1.0,3.0,97,0.07,,---,0.65,VWS V14.01,2013-04-16 02:23:00,
2013-04-15 21:24:00,45.5,44.7,29.81,North,0,1.0,2.0,97,0.07,,---,0.65,VWS V14.01,2013-04-16 02:24:00,
2013-04-15 21:27:00,45.4,44.6,29.81,North,358,1.0,3.0,97,0.06,,---,0.65,VWS V14.01,2013-04-16 02:27:00,
2013-04-15 21:29:00,45.4,44.6,29.80,NNW,333,3.0,4.0,97,0.06,,---,0.65,VWS V14.01,2013-04-16 02:29:00,
2013-04-15 21:30:00,45.4,44.6,29.80,NNW,347,2.0,3.0,97,0.06,,---,0.65,VWS V14.01,2013-04-16 02:30:00,
2013-04-15 21:34:00,45.4,44.6,29.80,WNW,303,4.0,5.0,97,0.04,,---,0.65,VWS V14.01,2013-04-16 02:34:00,
2013-04-15 21:37:00,45.2,44.4,29.80,NNW,332,3.0,3.0,97,0.04,,---,0.65,VWS V14.01,2013-04-16 02:37:00,
2013-04-15 21:38:00,45.2,44.4,29.80,NNW,330,2.0,3.0,97,0.04,,---,0.65,VWS V14.01,2013-04-16 02:38:00,
2013-04-15 21:39:00,45.2,44.4,29.80,NNW,332,2.0,3.0,97,0.04,,---,0.65,VWS V14.01,2013-04-16 02:39:00,
2013-04-15 21:41:00,45.2,44.4,29.80,North,0,3.0,3.0,97,0.04,,---,0.65,VWS V14.01,2013-04-16 02:41:00,
2013-04-15 21:43:00,45.2,44.4,29.80,NNW,340,5.0,5.0,97,0.04,,---,0.65,VWS V14.01,2013-04-16 02:43:00,
2013-04-15 21:44:00,45.2,44.4,29.82,NNW,340,1.0,3.0,97,0.04,,---,0.65,VWS V14.01,2013-04-16 02:44:00,
2013-04-15 21:45:00,45.2,44.4,29.82,NNW,345,0.0,3.0,97,0.04,,---,0.65,VWS V14.01,2013-04-16 02:45:00,
2013-04-15 21:47:00,45.2,44.4,29.82,North,0,5.0,5.0,97,0.04,,---,0.65,VWS V14.01,2013-04-16 02:47:00,
2013-04-15 21:48:00,45.2,44.4,29.82,North,9,3.0,3.0,97,0.03,,---,0.65,VWS V14.01,2013-04-16 02:48:00,
2013-04-15 21:50:00,45.2,44.4,29.82,North,357,2.0,3.0,97,0.03,,---,0.65,VWS V14.01,2013-04-16 02:50:00,
2013-04-15 21:52:00,45.2,44.4,29.82,North,355,1.0,4.0,97,0.03,,---,0.65,VWS V14.01,2013-04-16 02:52:00,
2013-04-15 21:54:00,45.1,44.3,29.82,NNE,16,0.0,3.0,97,0.03,,---,0.66,VWS V14.01,2013-04-16 02:54:00,
2013-04-15 21:56:00,45.2,44.4,29.82,NNE,18,1.0,1.0,97,0.03,,---,0.66,VWS V14.01,2013-04-16 02:56:00,
2013-04-15 21:57:00,45.2,44.4,29.82,North,0,3.0,3.0,97,0.03,,---,0.66,VWS V14.01,2013-04-16 02:57:00,
2013-04-15 21:59:00,45.2,44.4,29.80,North,355,4.0,4.0,97,0.03,,---,0.66,VWS V14.01,2013-04-16 02:59:00,
2013-04-15 22:00:00,45.2,44.4,29.80,ESE,107,1.0,2.0,97,0.02,,---,0.66,VWS V14.01,2013-04-16 03:00:00,
2013-04-15 22:02:00,45.2,44.4,29.80,North,356,1.0,3.0,97,0.02,,---,0.66,VWS V14.01,2013-04-16 03:02:00,
2013-04-15 22:04:00,45.2,44.4,29.80,North,355,2.0,2.0,97,0.02,,---,0.66,VWS V14.01,2013-04-16 03:04:00,
2013-04-15 22:08:00,45.2,44.4,29.80,North,5,1.0,1.0,97,0.02,,---,0.66,VWS V14.01,2013-04-16 03:08:00,
2013-04-15 22:09:00,45.2,44.7,29.80,North,5,0.0,0.0,98,0.02,,---,0.66,VWS V14.01,2013-04-16 03:09:00,
2013-04-15 22:10:00,45.2,44.7,29.80,North,5,0.0,0.0,98,0.02,,---,0.66,VWS V14.01,2013-04-16 03:10:00,
2013-04-15 22:12:00,45.2,44.7,29.80,NNE,15,3.0,3.0,98,0.03,,---,0.67,VWS V14.01,2013-04-16 03:12:00,
2013-04-15 22:13:00,45.2,44.7,29.80,NW,322,2.0,3.0,98,0.03,,---,0.67,VWS V14.01,2013-04-16 03:13:00,
2013-04-15 22:15:00,45.2,44.7,29.81,North,10,2.0,5.0,98,0.02,,---,0.67,VWS V14.01,2013-04-16 03:15:00,
2013-04-15 22:17:00,45.4,44.9,29.81,NNW,348,3.0,5.0,98,0.02,,---,0.67,VWS V14.01,2013-04-16 03:17:00,
2013-04-15 22:18:00,45.4,44.9,29.81,North,352,1.0,1.0,98,0.02,,---,0.67,VWS V14.01,2013-04-16 03:18:00,
2013-04-15 22:19:00,45.4,44.9,29.81,North,0,3.0,3.0,98,0.02,,---,0.67,VWS V14.01,2013-04-16 03:19:00,
2013-04-15 22:21:00,45.4,44.9,29.81,NNW,329,2.0,4.0,98,0.02,,---,0.67,VWS V14.01,2013-04-16 03:21:00,
2013-04-15 22:22:00,45.4,44.9,29.81,North,2,4.0,5.0,98,0.03,,---,0.68,VWS V14.01,2013-04-16 03:22:00,
2013-04-15 22:23:00,45.4,44.9,29.81,NW,325,3.0,4.0,98,0.03,,---,0.68,VWS V14.01,2013-04-16 03:23:00,
2013-04-15 22:24:00,45.4,44.9,29.81,North,0,3.0,7.0,98,0.03,,---,0.68,VWS V14.01,2013-04-16 03:24:00,
2013-04-15 22:25:00,45.4,44.9,29.81,North,352,5.0,5.0,98,0.03,,---,0.68,VWS V14.01,2013-04-16 03:25:00,
2013-04-15 22:26:00,45.4,44.9,29.81,NNW,328,2.0,2.0,98,0.03,,---,0.68,VWS V14.01,2013-04-16 03:26:00,
2013-04-15 22:27:00,45.4,44.9,29.81,North,0,2.0,3.0,98,0.04,,---,0.69,VWS V14.01,2013-04-16 03:27:00,
2013-04-15 22:29:00,45.4,44.9,29.83,North,11,4.0,4.0,98,0.05,,---,0.70,VWS V14.01,2013-04-16 03:29:00,
2013-04-15 22:30:00,45.4,44.9,29.83,North,0,0.0,2.0,98,0.05,,---,0.70,VWS V14.01,2013-04-16 03:30:00,
2013-04-15 22:32:00,45.4,44.9,29.83,NNW,342,2.0,3.0,98,0.05,,---,0.70,VWS V14.01,2013-04-16 03:32:00,
2013-04-15 22:34:00,45.2,44.7,29.83,NW,316,2.0,2.0,98,0.05,,---,0.70,VWS V14.01,2013-04-16 03:34:00,
2013-04-15 22:35:00,45.2,44.7,29.83,North,349,1.0,3.0,98,0.06,,---,0.71,VWS V14.01,2013-04-16 03:35:00,
2013-04-15 22:39:00,45.2,44.7,29.83,NNW,335,4.0,4.0,98,0.07,,---,0.72,VWS V14.01,2013-04-16 03:39:00,
2013-04-15 22:40:00,45.2,44.7,29.83,North,358,3.0,4.0,98,0.07,,---,0.72,VWS V14.01,2013-04-16 03:40:00,
2013-04-15 22:42:00,45.2,44.7,29.83,North,3,2.0,2.0,98,0.07,,---,0.72,VWS V14.01,2013-04-16 03:42:00,
2013-04-15 22:44:00,45.1,44.6,29.83,North,353,1.0,5.0,98,0.08,,---,0.73,VWS V14.01,2013-04-16 03:44:00,
2013-04-15 22:45:00,45.1,44.6,29.83,NNW,328,2.0,3.0,98,0.08,,---,0.73,VWS V14.01,2013-04-16 03:45:00,
2013-04-15 22:46:00,45.1,44.6,29.83,North,354,5.0,5.0,98,0.08,,---,0.73,VWS V14.01,2013-04-16 03:46:00,
2013-04-15 22:49:00,45.1,44.6,29.83,North,4,3.0,4.0,98,0.08,,---,0.73,VWS V14.01,2013-04-16 03:49:00,
2013-04-15 22:51:00,44.9,44.4,29.83,NNW,342,1.0,1.0,98,0.08,,---,0.73,VWS V14.01,2013-04-16 03:51:00,
2013-04-15 22:52:00,44.9,44.4,29.83,NNW,342,1.0,1.0,98,0.08,,---,0.73,VWS V14.01,2013-04-16 03:52:00,
2013-04-15 22:53:00,44.9,44.4,29.83,NNW,342,2.0,3.0,98,0.09,,---,0.74,VWS V14.01,2013-04-16 03:53:00,
2013-04-15 22:54:00,44.9,44.4,29.83,North,0,3.0,3.0,98,0.09,,---,0.75,VWS V14.01,2013-04-16 03:54:00,
2013-04-15 22:56:00,44.9,44.4,29.83,North,358,2.0,2.0,98,0.12,,---,0.78,VWS V14.01,2013-04-16 03:56:00,
2013-04-15 22:57:00,44.9,44.4,29.83,NNW,348,3.0,4.0,98,0.13,,---,0.79,VWS V14.01,2013-04-16 03:57:00,
2013-04-15 22:59:00,44.8,44.3,29.82,NNW,340,3.0,4.0,98,0.14,,---,0.80,VWS V14.01,2013-04-16 03:59:00,
2013-04-15 23:00:00,44.8,44.3,29.82,North,4,2.0,4.0,98,0.14,,---,0.80,VWS V14.01,2013-04-16 04:00:00,
2013-04-15 23:01:00,44.6,44.1,29.82,ENE,77,2.0,3.0,98,0.15,,---,0.81,VWS V14.01,2013-04-16 04:01:00,
2013-04-15 23:02:00,44.6,44.1,29.82,ENE,62,1.0,1.0,98,0.15,,---,0.81,VWS V14.01,2013-04-16 04:02:00,
2013-04-15 23:05:00,44.6,44.1,29.82,NNW,338,1.0,3.0,98,0.16,,---,0.82,VWS V14.01,2013-04-16 04:05:00,
2013-04-15 23:07:00,44.5,44.0,29.82,NNW,344,1.0,3.0,98,0.16,,---,0.82,VWS V14.01,2013-04-16 04:07:00,
2013-04-15 23:08:00,44.5,44.0,29.82,NW,318,2.0,3.0,98,0.17,,---,0.83,VWS V14.01,2013-04-16 04:08:00,
2013-04-15 23:10:00,44.5,44.0,29.82,NNW,338,3.0,3.0,98,0.17,,---,0.83,VWS V14.01,2013-04-16 04:10:00,
2013-04-15 23:12:00,44.6,44.1,29.82,North,354,1.0,4.0,98,0.19,,---,0.85,VWS V14.01,2013-04-16 04:12:00,
2013-04-15 23:13:00,44.6,44.1,29.82,North,8,3.0,3.0,98,0.20,,---,0.87,VWS V14.01,2013-04-16 04:13:00,
2013-04-15 23:15:00,44.6,44.1,29.82,North,8,1.0,2.0,98,0.20,,---,0.87,VWS V14.01,2013-04-16 04:15:00,
2013-04-15 23:17:00,44.6,44.1,29.82,NNW,328,0.0,0.0,98,0.21,,---,0.88,VWS V14.01,2013-04-16 04:17:00,
2013-04-15 23:18:00,44.6,44.1,29.82,NNW,328,0.0,2.0,98,0.21,,---,0.88,VWS V14.01,2013-04-16 04:18:00,
2013-04-15 23:19:00,44.6,44.1,29.82,NNE,25,0.0,1.0,98,0.21,,---,0.88,VWS V14.01,2013-04-16 04:19:00,
2013-04-15 23:21:00,44.6,44.1,29.82,NNW,333,2.0,3.0,98,0.21,,---,0.88,VWS V14.01,2013-04-16 04:21:00,
2013-04-15 23:22:00,44.6,44.1,29.82,NW,309,1.0,3.0,98,0.21,,---,0.88,VWS V14.01,2013-04-16 04:22:00,
2013-04-15 23:23:00,44.6,44.1,29.82,NW,319,2.0,4.0,98,0.20,,---,0.88,VWS V14.01,2013-04-16 04:23:00,
2013-04-15 23:24:00,44.6,44.1,29.82,NW,319,0.0,0.0,98,0.21,,---,0.89,VWS V14.01,2013-04-16 04:24:00,
2013-04-15 23:28:00,44.6,44.1,29.82,NW,314,1.0,1.0,98,0.21,,---,0.90,VWS V14.01,2013-04-16 04:28:00,
2013-04-15 23:30:00,44.6,44.1,29.83,WNW,297,2.0,3.0,98,0.21,,---,0.91,VWS V14.01,2013-04-16 04:30:00,
2013-04-15 23:32:00,44.8,44.3,29.83,WNW,300,1.0,1.0,98,0.21,,---,0.91,VWS V14.01,2013-04-16 04:32:00,
2013-04-15 23:33:00,44.8,44.3,29.83,WNW,300,1.0,2.0,98,0.21,,---,0.91,VWS V14.01,2013-04-16 04:33:00,
2013-04-15 23:35:00,44.8,44.3,29.83,NNW,345,0.0,0.0,98,0.20,,---,0.91,VWS V14.01,2013-04-16 04:35:00,
2013-04-15 23:38:00,44.8,44.3,29.83,NNW,335,1.0,2.0,98,0.20,,---,0.91,VWS V14.01,2013-04-16 04:38:00,
2013-04-15 23:39:00,44.8,44.3,29.83,NNW,335,2.0,2.0,98,0.20,,---,0.91,VWS V14.01,2013-04-16 04:39:00,
2013-04-15 23:40:00,44.8,44.3,29.83,NNW,335,2.0,2.0,98,0.19,,---,0.91,VWS V14.01,2013-04-16 04:40:00,
2013-04-15 23:41:00,44.9,44.4,29.83,NNW,341,0.0,0.0,98,0.19,,---,0.91,VWS V14.01,2013-04-16 04:41:00,
2013-04-15 23:44:00,44.9,44.4,29.83,NNW,341,0.0,0.0,98,0.19,,---,0.91,VWS V14.01,2013-04-16 04:44:00,
2013-04-15 23:45:00,44.9,44.4,29.83,NNW,342,0.0,1.0,98,0.18,,---,0.91,VWS V14.01,2013-04-16 04:45:00,
2013-04-15 23:46:00,44.9,44.4,29.83,NNW,342,1.0,1.0,98,0.18,,---,0.91,VWS V14.01,2013-04-16 04:46:00,
2013-04-15 23:49:00,44.9,44.6,29.83,NNW,342,0.0,0.0,99,0.18,,---,0.91,VWS V14.01,2013-04-16 04:49:00,
2013-04-15 23:51:00,44.9,44.6,29.83,NNW,342,2.0,2.0,99,0.19,,---,0.92,VWS V14.01,2013-04-16 04:51:00,
2013-04-15 23:52:00,44.9,44.6,29.83,NNW,342,0.0,2.0,99,0.19,,---,0.92,VWS V14.01,2013-04-16 04:52:00,
2013-04-15 23:54:00,44.9,44.6,29.83,NNW,342,0.0,2.0,99,0.18,,---,0.92,VWS V14.01,2013-04-16 04:54:00,
2013-04-15 23:56:00,44.9,44.6,29.83,NNW,342,2.0,3.0,99,0.17,,---,0.92,VWS V14.01,2013-04-16 04:56:00,
2013-04-15 23:57:00,44.9,44.6,29.83,NNW,342,1.0,3.0,99,0.15,,---,0.92,VWS V14.01,2013-04-16 04:57:00,
2013-04-15 23:59:00,44.9,44.6,29.83,NNW,342,0.0,1.0,99,0.13,,---,0.92,VWS V14.01,2013-04-16 04:59:00,